M I D A S
Marine Information and Data Acquisition System
Tripno 2030 of the Zeeleeuw from 2011-01-13 07:54:20 to 2011-01-13 14:47:15
Back to CruiseResearch ActivitiesStationsMapUnderway DataData graphs

EquipmentUnitsComment
TimeDGPSUTC
LatitudeDGPSDM.mWGS84
LongitudeDGPSDM.mWGS84
TemperatureSBE03/SBE38deg celciusITS90
ConductivitySBE21S/mITS90
SalinitySBE21 Practical Salinity Units
ChlorophylAChelsea fluorimeterg/lCalibrated in Aceton
Missing or incorrect values are displayed as -999
Sea surface data collected by the RV Zeeleeuw from 2011-01-13 07:46:14 to 2011-01-13 14:51:57
                                                                                    Next 1000 lines
Time Latitude Longitude Temperature Conductivity Salinity ChlorophylA
2011-01-13 07:46:24 51°13.662 2°55.962 5.2733 2.938791 28.459328 -0.338911
2011-01-13 07:46:29 51°13.662 2°55.962 5.236 2.893293 28.223885 -0.338911
2011-01-13 07:46:34 51°13.662 2°55.962 5.1707 2.868335 28.177628 -0.338911
2011-01-13 07:46:39 51°13.662 2°55.962 5.1675 2.843693 28.033194 -0.338911
2011-01-13 07:46:44 51°13.662 2°55.962 5.1488 2.828529 27.98978 -0.338911
2011-01-13 07:46:48 51°13.662 2°55.962 5.0983 2.828529 27.98978 -0.338911
2011-01-13 07:46:54 51°13.662 2°55.962 5.0999 2.817578 27.969503 -0.338911
2011-01-13 07:47:00 51°13.662 2°55.962 5.0538 2.81105 27.957063 -0.338911
2011-01-13 07:47:04 51°13.662 2°55.961 5.032 2.807681 28.004306 -0.338911
2011-01-13 07:47:09 51°13.661 2°55.961 4.998 2.805365 28.052682 -0.338911
2011-01-13 07:47:14 51°13.661 2°55.961 4.9889 2.80484 28.103776 -0.304087
2011-01-13 07:47:19 51°13.661 2°55.961 4.961 2.80484 28.103776 -0.304087
2011-01-13 07:47:24 51°13.661 2°55.961 4.943 2.802944 28.124021 -0.338911
2011-01-13 07:47:29 51°13.661 2°55.962 4.9113 2.799575 28.151222 -0.269263
2011-01-13 07:47:33 51°13.662 2°55.962 4.9081 2.796417 28.149618 -0.304087
2011-01-13 07:47:38 51°13.661 2°55.961 4.8912 2.795785 28.173162 -0.373735
2011-01-13 07:47:43 51°13.661 2°55.962 4.8843 2.79726 28.226011 -0.304087
2011-01-13 07:47:48 51°13.661 2°55.962 4.8869 2.79726 28.226011 -0.304087
2011-01-13 07:47:53 51°13.661 2°55.962 4.8755 2.799682 28.302025 -0.199615
2011-01-13 07:47:58 51°13.661 2°55.961 4.8762 2.799999 28.340089 -0.164791
2011-01-13 07:48:03 51°13.661 2°55.962 4.8707 2.800841 28.367901 -0.199615
2011-01-13 07:48:09 51°13.662 2°55.962 4.8723 2.802737 28.400124 -0.269263
2011-01-13 07:48:13 51°13.662 2°55.962 4.8481 2.793681 28.335136 -0.234439
2011-01-13 07:48:19 51°13.662 2°55.962 4.821 2.793681 28.335136 -0.234439
2011-01-13 07:48:25 51°13.662 2°55.962 4.8312 2.80179 28.431678 -0.199615
2011-01-13 07:48:30 51°13.662 2°55.962 4.8198 2.800737 28.443606 -0.199615
2011-01-13 07:48:34 51°13.662 2°55.962 4.821 2.801158 28.457961 -0.199615
2011-01-13 07:48:39 51°13.662 2°55.962 4.8124 2.799263 28.454551 -0.234439
2011-01-13 07:48:44 51°13.662 2°55.963 4.815 2.799579 28.466259 -0.234439
2011-01-13 07:48:49 51°13.662 2°55.963 4.794 2.799579 28.466259 -0.234439
2011-01-13 07:48:54 51°13.662 2°55.963 4.7837 2.798315 28.453588 -0.269263
2011-01-13 07:48:58 51°13.662 2°55.963 4.7479 2.801896 28.515285 -0.234439
2011-01-13 07:49:04 51°13.662 2°55.963 4.7329 2.797157 28.474055 -0.304087
2011-01-13 07:49:09 51°13.662 2°55.963 4.7455 2.804107 28.563213 -0.269263
2011-01-13 07:49:15 51°13.662 2°55.963 4.7417 2.803792 28.573114 -0.199615
2011-01-13 07:49:19 51°13.662 2°55.963 4.7033 2.803792 28.573114 -0.199615
2011-01-13 07:49:24 51°13.662 2°55.963 4.6833 2.793577 28.459191 -0.269263
2011-01-13 07:49:28 51°13.662 2°55.963 4.7054 2.798632 28.539071 -0.199615
2011-01-13 07:49:34 51°13.662 2°55.963 4.6746 2.79084 28.456007 -0.304087
2011-01-13 07:49:39 51°13.662 2°55.963 4.6516 2.808636 28.676274 -0.199615
2011-01-13 07:49:44 51°13.662 2°55.963 4.6483 2.805161 28.649944 -0.164791
2011-01-13 07:49:48 51°13.662 2°55.963 4.6341 2.805161 28.649944 -0.164791
2011-01-13 07:49:53 51°13.662 2°55.963 4.6396 2.803371 28.643316 -0.234439
2011-01-13 07:49:58 51°13.662 2°55.963 4.6496 2.810216 28.739992 -0.234439
2011-01-13 07:50:03 51°13.662 2°55.963 4.6419 2.817798 28.839083 -0.269263
2011-01-13 07:50:08 51°13.662 2°55.963 4.6558 2.81127 28.771498 -0.269263
2011-01-13 07:50:13 51°13.662 2°55.963 4.6596 2.816324 28.844426 -0.199615
2011-01-13 07:50:18 51°13.662 2°55.963 4.6596 2.816324 28.844426 -0.199615
2011-01-13 07:50:23 51°13.662 2°55.963 4.6613 2.827803 28.99079 -0.234439
2011-01-13 07:50:28 51°13.662 2°55.963 4.6635 2.819694 28.909064 -0.095143
2011-01-13 07:50:33 51°13.662 2°55.963 4.644 2.823591 28.96529 -0.304087
2011-01-13 07:50:38 51°13.662 2°55.963 4.6343 2.822538 28.95872 -0.269263
2011-01-13 07:50:43 51°13.662 2°55.963 4.6255 2.819695 28.928856 -0.129967
2011-01-13 07:50:50 51°13.662 2°55.963 4.6217 2.819695 28.928856 -0.129967
2011-01-13 07:50:54 51°13.662 2°55.963 4.6262 2.816957 28.897138 -0.234439
2011-01-13 07:50:59 51°13.662 2°55.963 4.6188 2.826224 28.998876 -0.164791
2011-01-13 07:51:05 51°13.662 2°55.963 4.6241 2.814956 28.872998 -0.164791
2011-01-13 07:51:10 51°13.662 2°55.962 4.608 2.826224 29.001166 -0.164791
2011-01-13 07:51:15 51°13.662 2°55.962 4.6143 2.827593 29.019708 -0.164791
2011-01-13 07:51:20 51°13.662 2°55.962 4.61 2.827593 29.019708 -0.164791
2011-01-13 07:51:24 51°13.662 2°55.963 4.6162 2.823591 28.982839 -0.164791
2011-01-13 07:51:30 51°13.662 2°55.963 4.6256 2.826013 29.021711 -0.095143
2011-01-13 07:51:35 51°13.662 2°55.963 4.623 2.831384 29.090178 -0.234439
2011-01-13 07:51:40 51°13.662 2°55.962 4.6208 2.830331 29.084386 -0.199615
2011-01-13 07:51:44 51°13.662 2°55.962 4.6377 2.817062 28.938717 -0.129967
2011-01-13 07:51:49 51°13.662 2°55.962 4.6193 2.817062 28.938717 -0.129967
2011-01-13 07:51:54 51°13.662 2°55.963 4.6268 2.824855 29.029255 -0.234439
2011-01-13 07:51:59 51°13.662 2°55.962 4.6458 2.820011 28.974394 -0.199615
2011-01-13 07:52:04 51°13.662 2°55.963 4.672 2.833491 29.129391 -0.199615
2011-01-13 07:52:08 51°13.662 2°55.963 4.6943 2.818221 28.958705 -0.269263
2011-01-13 07:52:13 51°13.662 2°55.963 4.7492 2.831595 29.107143 -0.164791
2011-01-13 07:52:19 51°13.662 2°55.963 4.7259 2.831595 29.107143 -0.164791
2011-01-13 07:52:25 51°13.662 2°55.963 4.7326 2.817378 28.943057 -0.234439
2011-01-13 07:52:30 51°13.662 2°55.962 4.7226 2.812956 28.896035 -0.269263
2011-01-13 07:52:34 51°13.662 2°55.962 4.7665 2.815378 28.923456 -0.164791
2011-01-13 07:52:40 51°13.662 2°55.962 4.7752 2.805689 28.805437 -0.164791
2011-01-13 07:52:46 51°13.662 2°55.962 4.737 2.79716 28.69383 -0.269263
2011-01-13 07:52:50 51°13.662 2°55.962 4.7083 2.79716 28.69383 -0.269263
2011-01-13 07:52:55 51°13.662 2°55.962 4.7008 2.782417 28.504735 -0.269263
2011-01-13 07:52:59 51°13.662 2°55.962 4.678 2.764832 28.292967 -0.164791
2011-01-13 07:53:05 51°13.662 2°55.962 4.6765 2.760305 28.233773 -0.269263
2011-01-13 07:53:10 51°13.662 2°55.963 4.6789 2.748196 28.087813 -0.269263
2011-01-13 07:53:15 51°13.662 2°55.963 4.681 2.744721 28.031762 -0.234439
2011-01-13 07:53:19 51°13.662 2°55.963 4.6873 2.744721 28.031762 -0.234439
2011-01-13 07:53:24 51°13.663 2°55.963 4.649 2.737772 27.950695 -0.234439
2011-01-13 07:53:30 51°13.662 2°55.963 4.6361 2.738193 27.969392 -0.164791
2011-01-13 07:53:35 51°13.662 2°55.963 4.6318 2.731455 27.906831 -0.129967
2011-01-13 07:53:39 51°13.662 2°55.963 4.6341 2.743353 28.053231 -0.129967
2011-01-13 07:53:44 51°13.662 2°55.963 4.6206 2.747248 28.106713 -0.199615
2011-01-13 07:53:49 51°13.662 2°55.963 4.62 2.747248 28.106713 -0.199615
2011-01-13 07:53:55 51°13.662 2°55.963 4.6279 2.752197 28.168399 -0.199615
2011-01-13 07:53:59 51°13.662 2°55.962 4.6241 2.757357 28.231757 -0.129967
2011-01-13 07:54:05 51°13.662 2°55.962 4.6179 2.753566 28.19422 -0.095143
2011-01-13 07:54:10 51°13.662 2°55.962 4.6339 2.758726 28.265057 -0.164791
2011-01-13 07:54:16 51°13.662 2°55.962 4.6149 2.752829 28.208202 -0.199615
2011-01-13 07:54:20 51°13.662 2°55.962 4.6058 2.752829 28.208202 -0.199615
2011-01-13 07:54:25 51°13.662 2°55.962 4.6108 2.755146 28.239553 -0.164791
2011-01-13 07:54:30 51°13.662 2°55.962 4.6122 2.752408 28.216095 -0.164791
2011-01-13 07:54:35 51°13.662 2°55.962 4.6185 2.760516 28.311371 -0.095143
2011-01-13 07:54:41 51°13.662 2°55.962 4.772 2.758937 28.293532 -0.199615
2011-01-13 07:54:44 51°13.662 2°55.962 4.8786 2.745038 28.141074 -0.234439
2011-01-13 07:54:51 51°13.662 2°55.962 4.9182 2.745038 28.141074 -0.234439
2011-01-13 07:54:55 51°13.662 2°55.962 4.9148 2.757989 28.288054 -0.234439
2011-01-13 07:55:00 51°13.662 2°55.962 4.8913 2.750934 28.212106 -0.269263
2011-01-13 07:55:05 51°13.662 2°55.962 4.836 2.749566 28.20037 -0.095143
2011-01-13 07:55:09 51°13.662 2°55.962 4.8081 2.754198 28.253443 -0.095143
2011-01-13 07:55:15 51°13.662 2°55.962 4.803 2.745564 28.141819 -0.199615
2011-01-13 07:55:20 51°13.662 2°55.962 4.7764 2.745564 28.141819 -0.199615
2011-01-13 07:55:25 51°13.662 2°55.962 4.7742 2.714503 27.724279 -0.164791
2011-01-13 07:55:30 51°13.662 2°55.962 4.775 2.676602 27.243457 -0.164791
2011-01-13 07:55:34 51°13.662 2°55.962 4.7665 2.635229 26.742098 -0.234439
2011-01-13 07:55:39 51°13.662 2°55.962 4.7617 2.621755 26.57858 -0.095143
2011-01-13 07:55:44 51°13.662 2°55.962 4.7903 2.614492 26.512235 -0.129967
2011-01-13 07:55:50 51°13.662 2°55.962 4.8195 2.614492 26.512235 -0.129967
2011-01-13 07:55:54 51°13.662 2°55.962 4.8254 2.629124 26.687276 -0.129967
2011-01-13 07:55:59 51°13.662 2°55.962 4.8281 2.630598 26.715632 -0.164791
2011-01-13 07:56:05 51°13.662 2°55.962 4.8192 2.63144 26.74117 -0.129967
2011-01-13 07:56:10 51°13.662 2°55.962 4.8059 2.644283 26.888939 -0.199615
2011-01-13 07:56:14 51°13.662 2°55.962 4.7861 2.648599 26.94428 -0.164791
2011-01-13 07:56:20 51°13.662 2°55.962 4.7691 2.648599 26.94428 -0.164791
2011-01-13 07:56:25 51°13.662 2°55.962 4.7563 2.646915 26.926852 -0.199615
2011-01-13 07:56:30 51°13.662 2°55.962 4.7329 2.642178 26.863988 -0.095143
2011-01-13 07:56:35 51°13.662 2°55.962 4.7115 2.632598 26.743577 -0.129967
2011-01-13 07:56:40 51°13.662 2°55.962 4.7202 2.625756 26.662972 -0.129967
2011-01-13 07:56:45 51°13.662 2°55.962 4.7036 2.626071 26.667197 -0.164791
2011-01-13 07:56:50 51°13.662 2°55.962 4.697 2.626071 26.667197 -0.164791
2011-01-13 07:56:55 51°13.662 2°55.962 4.7064 2.623966 26.64789 -0.095143
2011-01-13 07:57:00 51°13.662 2°55.962 4.7035 2.626703 26.691055 -0.164791
2011-01-13 07:57:05 51°13.662 2°55.962 4.7013 2.632072 26.761575 -0.199615
2011-01-13 07:57:10 51°13.662 2°55.962 4.6991 2.636914 26.831216 -0.129967
2011-01-13 07:57:15 51°13.662 2°55.962 4.7138 2.640915 26.891523 -0.095143
2011-01-13 07:57:19 51°13.662 2°55.962 4.6835 2.640915 26.891523 -0.095143
2011-01-13 07:57:25 51°13.662 2°55.962 4.6712 2.643231 26.927369 -0.129967
2011-01-13 07:57:30 51°13.661 2°55.962 4.6838 2.643968 26.942003 -0.095143
2011-01-13 07:57:35 51°13.661 2°55.962 4.6866 2.643231 26.938 -0.129967
2011-01-13 07:57:39 51°13.661 2°55.961 4.6865 2.642073 26.928568 -0.060319
2011-01-13 07:57:45 51°13.661 2°55.961 4.6776 2.643231 26.942255 -0.129967
2011-01-13 07:57:50 51°13.661 2°55.961 4.6806 2.643231 26.942255 -0.129967
2011-01-13 07:57:55 51°13.661 2°55.961 4.6619 2.645231 26.968933 -0.129967
2011-01-13 07:58:00 51°13.661 2°55.962 4.65 2.649021 27.014981 -0.164791
2011-01-13 07:58:05 51°13.661 2°55.962 4.6555 2.649126 27.026837 -0.164791
2011-01-13 07:58:11 51°13.661 2°55.962 4.6482 2.648916 27.025187 -0.060319
2011-01-13 07:58:15 51°13.661 2°55.961 4.6469 2.646284 26.99993 -0.129967
2011-01-13 07:58:21 51°13.661 2°55.961 4.64 2.646284 26.99993 -0.129967
2011-01-13 07:58:25 51°13.661 2°55.961 4.6386 2.647758 27.015754 -0.129967
2011-01-13 07:58:31 51°13.661 2°55.961 4.6206 2.64881 27.030415 -0.129967
2011-01-13 07:58:35 51°13.661 2°55.96 4.6159 2.649442 27.046056 -0.095143
2011-01-13 07:58:40 51°13.662 2°55.958 4.6335 2.647442 27.027878 -0.129967
2011-01-13 07:58:45 51°13.663 2°55.954 4.6424 2.646495 27.021517 -0.025495
2011-01-13 07:58:50 51°13.665 2°55.949 4.6452 2.646495 27.021517 -0.025495
2011-01-13 07:58:55 51°13.667 2°55.943 4.6377 2.6486 27.048724 -0.095143
2011-01-13 07:59:00 51°13.669 2°55.936 4.652 2.648811 27.055369 -0.129967
2011-01-13 07:59:06 51°13.671 2°55.927 4.6531 2.649021 27.061304 -0.164791
2011-01-13 07:59:11 51°13.673 2°55.919 4.6331 2.647548 27.054026 -0.129967
2011-01-13 07:59:15 51°13.675 2°55.912 4.6374 2.647863 27.059718 -0.129967
2011-01-13 07:59:21 51°13.678 2°55.902 4.6267 2.647863 27.059718 -0.129967
2011-01-13 07:59:26 51°13.68 2°55.893 4.6445 2.638705 26.956106 -0.164791
2011-01-13 07:59:31 51°13.682 2°55.883 4.635 2.638705 26.952549 -0.164791
2011-01-13 07:59:35 51°13.683 2°55.876 4.6351 2.632073 26.875241 -0.025495
2011-01-13 07:59:41 51°13.685 2°55.865 4.627 2.624389 26.788285 -0.025495
2011-01-13 07:59:46 51°13.687 2°55.856 4.6269 2.627757 26.823964 0.009329
2011-01-13 07:59:51 51°13.689 2°55.847 4.6267 2.627757 26.823964 0.009329
2011-01-13 07:59:55 51°13.69 2°55.84 4.62 2.633021 26.888006 0.009329
2011-01-13 08:00:00 51°13.691 2°55.831 4.633 2.636494 26.928433 -0.025495
2011-01-13 08:00:06 51°13.692 2°55.821 4.6182 2.632178 26.880679 0.009329
2011-01-13 08:00:11 51°13.693 2°55.813 4.6162 2.624704 26.797485 0.009329
2011-01-13 08:00:15 51°13.694 2°55.806 4.6234 2.614073 26.682411 0.009329
2011-01-13 08:00:20 51°13.695 2°55.798 4.6153 2.614073 26.682411 0.009329
2011-01-13 08:00:26 51°13.695 2°55.789 4.6114 2.608494 26.622636 -0.025495
2011-01-13 08:00:31 51°13.695 2°55.781 4.6145 2.601652 26.547299 0.009329
2011-01-13 08:00:35 51°13.695 2°55.775 4.6113 2.601442 26.548442 0.009329
2011-01-13 08:00:40 51°13.695 2°55.768 4.6284 2.599021 26.51919 0.009329
2011-01-13 08:00:46 51°13.695 2°55.76 4.6262 2.606705 26.61029 -0.025495
2011-01-13 08:00:51 51°13.695 2°55.754 4.6264 2.606705 26.61029 -0.025495
2011-01-13 08:00:55 51°13.694 2°55.749 4.6264 2.611652 26.665806 0.044153
2011-01-13 08:01:00 51°13.694 2°55.744 4.637 2.61902 26.752756 -0.095143
2011-01-13 08:01:05 51°13.694 2°55.74 4.6377 2.615231 26.709503 -0.095143
2011-01-13 08:01:10 51°13.694 2°55.737 4.6596 2.61881 26.752512 0.044153
2011-01-13 08:01:15 51°13.694 2°55.736 4.6418 2.614599 26.705234 -0.025495
2011-01-13 08:01:19 51°13.695 2°55.735 4.6512 2.614599 26.705234 -0.025495
2011-01-13 08:01:24 51°13.695 2°55.735 4.6551 2.615652 26.713524 -0.025495
2011-01-13 08:01:29 51°13.696 2°55.735 4.6522 2.617862 26.73693 -0.060319
2011-01-13 08:01:34 51°13.697 2°55.735 4.6686 2.613652 26.688958 -0.060319
2011-01-13 08:01:39 51°13.698 2°55.735 4.6721 2.610494 26.64859 -0.025495
2011-01-13 08:01:44 51°13.7 2°55.735 4.6819 2.604073 26.571645 -0.060319
2011-01-13 08:01:49 51°13.701 2°55.735 4.6888 2.604073 26.571645 -0.060319
2011-01-13 08:01:54 51°13.703 2°55.735 4.7041 2.604915 26.578984 -0.095143
2011-01-13 08:01:58 51°13.704 2°55.735 4.705 2.603231 26.559397 -0.025495
2011-01-13 08:02:03 51°13.707 2°55.735 4.7191 2.605862 26.585398 -0.025495
2011-01-13 08:02:08 51°13.709 2°55.734 4.7152 2.600915 26.527831 -0.060319
2011-01-13 08:02:13 51°13.712 2°55.734 4.7162 2.60102 26.522712 -0.060319
2011-01-13 08:02:18 51°13.716 2°55.733 4.7184 2.60102 26.522712 -0.060319
2011-01-13 08:02:23 51°13.72 2°55.731 4.727 2.594284 26.44165 -0.025495
2011-01-13 08:02:27 51°13.723 2°55.728 4.7253 2.590073 26.388929 -0.025495
2011-01-13 08:02:32 51°13.728 2°55.725 4.7286 2.581337 26.28421 -0.025495
2011-01-13 08:02:37 51°13.734 2°55.721 4.723 2.576495 26.221063 0.009329
2011-01-13 08:02:42 51°13.739 2°55.717 4.7268 2.567654 26.117411 -0.025495
2011-01-13 08:02:47 51°13.745 2°55.712 4.7255 2.567654 26.117411 -0.025495
2011-01-13 08:02:52 51°13.752 2°55.706 4.7356 2.564075 26.074679 -0.060319
2011-01-13 08:02:57 51°13.759 2°55.698 4.7433 2.560497 26.03265 -0.095143
2011-01-13 08:03:02 51°13.767 2°55.691 4.7419 2.55576 25.974973 -0.060319
2011-01-13 08:03:07 51°13.776 2°55.683 4.7441 2.55776 25.995244 -0.129967
2011-01-13 08:03:11 51°13.782 2°55.677 4.7652 2.557023 25.987019 -0.025495
2011-01-13 08:03:16 51°13.792 2°55.668 4.7639 2.557023 25.987019 -0.025495
2011-01-13 08:03:22 51°13.803 2°55.657 4.7586 2.55376 25.947867 -0.060319
2011-01-13 08:03:27 51°13.813 2°55.649 4.7686 2.547656 25.879071 -0.060319
2011-01-13 08:03:31 51°13.822 2°55.642 4.7637 2.545551 25.854908 -0.060319
2011-01-13 08:03:36 51°13.833 2°55.633 4.7733 2.540078 25.789794 -0.060319
2011-01-13 08:03:42 51°13.846 2°55.623 4.7871 2.532606 25.701758 -0.060319
2011-01-13 08:03:47 51°13.857 2°55.614 4.7628 2.532606 25.701758 -0.060319
2011-01-13 08:03:52 51°13.869 2°55.605 4.7684 2.508084 25.423992 -0.025495
2011-01-13 08:03:57 51°13.881 2°55.596 4.7748 2.472726 25.026944 0.009329
2011-01-13 08:04:02 51°13.893 2°55.587 4.7683 2.425901 24.503049 0.009329
2011-01-13 08:04:07 51°13.905 2°55.578 4.7707 2.384236 24.040789 -0.025495
2011-01-13 08:04:12 51°13.917 2°55.569 4.7492 2.356567 23.732723 -0.129967
2011-01-13 08:04:16 51°13.927 2°55.562 4.7512 2.356567 23.732723 -0.129967
2011-01-13 08:04:22 51°13.942 2°55.551 4.7324 2.338999 23.535242 -0.095143
2011-01-13 08:04:27 51°13.954 2°55.541 4.7314 2.332266 23.461662 -0.060319
2011-01-13 08:04:33 51°13.97 2°55.53 4.7236 2.338893 23.532845 -0.060319
2011-01-13 08:04:37 51°13.98 2°55.522 4.7097 2.355936 23.718898 0.009329
2011-01-13 08:04:42 51°13.992 2°55.512 4.6981 2.384131 24.032042 -0.060319
2011-01-13 08:04:47 51°14.005 2°55.503 4.6957 2.384131 24.032042 -0.060319
2011-01-13 08:04:52 51°14.017 2°55.493 4.6887 2.398018 24.190621 -0.025495
2011-01-13 08:04:57 51°14.03 2°55.483 4.6928 2.431793 24.569617 0.009329
2011-01-13 08:05:02 51°14.042 2°55.474 4.6942 2.462729 24.916609 -0.095143
2011-01-13 08:05:08 51°14.058 2°55.464 4.7044 2.493877 25.271945 -0.060319
2011-01-13 08:05:13 51°14.071 2°55.455 4.7289 2.515136 25.513879 -0.060319
2011-01-13 08:05:17 51°14.081 2°55.448 4.7277 2.515136 25.513879 -0.060319
2011-01-13 08:05:22 51°14.094 2°55.44 4.7407 2.535447 25.745622 0.009329
2011-01-13 08:05:27 51°14.107 2°55.431 4.777 2.567654 26.113283 -0.060319
2011-01-13 08:05:33 51°14.123 2°55.421 4.76 2.600599 26.488647 -0.060319
2011-01-13 08:05:38 51°14.136 2°55.412 4.7822 2.615125 26.654122 -0.129967
2011-01-13 08:05:43 51°14.149 2°55.403 4.7688 2.630388 26.824486 -0.060319
2011-01-13 08:05:49 51°14.165 2°55.392 4.7599 2.630388 26.824486 -0.060319
2011-01-13 08:05:54 51°14.178 2°55.383 4.7446 2.635968 26.881381 -0.060319
2011-01-13 08:06:00 51°14.193 2°55.372 4.7399 2.635757 26.873356 -0.129967
2011-01-13 08:06:05 51°14.206 2°55.362 4.7366 2.631967 26.8224 -0.060319
2011-01-13 08:06:10 51°14.219 2°55.352 4.7397 2.639441 26.893412 -0.095143
2011-01-13 08:06:16 51°14.234 2°55.339 4.734 2.642494 26.919823 -0.164791
2011-01-13 08:06:21 51°14.247 2°55.328 4.7342 2.642494 26.919823 -0.164791
2011-01-13 08:06:25 51°14.257 2°55.319 4.7382 2.643441 26.926186 -0.129967
2011-01-13 08:06:30 51°14.27 2°55.307 4.7485 2.645757 26.952127 -0.095143
2011-01-13 08:06:36 51°14.284 2°55.292 4.7438 2.66439 27.16667 -0.095143
2011-01-13 08:06:41 51°14.297 2°55.28 4.7493 2.673549 27.275868 -0.164791
2011-01-13 08:06:45 51°14.306 2°55.27 4.7532 2.685235 27.409938 -0.164791
2011-01-13 08:06:51 51°14.321 2°55.255 4.7423 2.685235 27.409938 -0.164791
2011-01-13 08:06:56 51°14.334 2°55.242 4.7666 2.688604 27.449943 -0.199615
2011-01-13 08:07:01 51°14.347 2°55.229 4.7581 2.690183 27.469853 -0.095143
2011-01-13 08:07:05 51°14.357 2°55.219 4.7617 2.687657 27.441467 -0.095143
2011-01-13 08:07:10 51°14.37 2°55.205 4.7862 2.680392 27.358439 -0.164791
2011-01-13 08:07:15 51°14.382 2°55.191 4.7835 2.671444 27.255109 -0.164791
2011-01-13 08:07:21 51°14.398 2°55.175 4.8111 2.671444 27.255109 -0.164791
2011-01-13 08:07:25 51°14.409 2°55.164 4.8256 2.668707 27.22511 -0.164791
2011-01-13 08:07:31 51°14.425 2°55.149 4.851 2.660285 27.12991 -0.129967
2011-01-13 08:07:36 51°14.439 2°55.137 4.8408 2.647547 26.981402 -0.129967
2011-01-13 08:07:41 51°14.454 2°55.124 4.8586 2.634599 26.836343 -0.199615
2011-01-13 08:07:45 51°14.465 2°55.114 4.855 2.61544 26.618382 -0.164791
2011-01-13 08:07:50 51°14.479 2°55.1 4.8667 2.61544 26.618382 -0.164791
2011-01-13 08:07:55 51°14.493 2°55.085 4.8665 2.601335 26.450204 -0.234439
2011-01-13 08:08:00 51°14.507 2°55.069 4.8694 2.582599 26.233346 -0.129967
2011-01-13 08:08:05 51°14.521 2°55.054 4.8762 2.564285 26.016729 -0.129967
2011-01-13 08:08:09 51°14.532 2°55.041 4.8902 2.544077 25.777401 -0.095143
2011-01-13 08:08:14 51°14.547 2°55.026 4.9062 2.521449 25.516378 -0.095143
2011-01-13 08:08:20 51°14.563 2°55.007 4.8994 2.521449 25.516378 -0.095143
2011-01-13 08:08:25 51°14.576 2°54.992 4.9021 2.499349 25.265666 -0.164791
2011-01-13 08:08:29 51°14.586 2°54.98 4.9065 2.491982 25.178 -0.129967
2011-01-13 08:08:34 51°14.599 2°54.965 4.896 2.491035 25.164197 -0.234439
2011-01-13 08:08:39 51°14.612 2°54.95 4.8925 2.49756 25.232574 -0.129967
2011-01-13 08:08:44 51°14.624 2°54.936 4.8812 2.497981 25.230625 -0.095143
2011-01-13 08:08:49 51°14.637 2°54.922 4.8676 2.497981 25.230625 -0.095143
2011-01-13 08:08:53 51°14.648 2°54.912 4.869 2.49335 25.171379 -0.129967
2011-01-13 08:08:58 51°14.66 2°54.899 4.857 2.494403 25.17644 -0.234439
2011-01-13 08:09:03 51°14.672 2°54.886 4.8644 2.494192 25.17213 -0.129967
2011-01-13 08:09:09 51°14.688 2°54.87 4.8721 2.510609 25.349403 -0.129967
2011-01-13 08:09:13 51°14.698 2°54.86 4.896 2.531868 25.587845 -0.234439
2011-01-13 08:09:17 51°14.708 2°54.849 4.9135 2.531868 25.587845 -0.234439
2011-01-13 08:09:22 51°14.721 2°54.836 4.932 2.559758 25.898252 -0.060319
2011-01-13 08:09:29 51°14.739 2°54.817 4.9532 2.593861 26.285149 -0.164791
2011-01-13 08:09:34 51°14.753 2°54.803 4.9673 2.620387 26.587008 -0.199615
2011-01-13 08:09:38 51°14.764 2°54.791 4.985 2.661863 27.055058 -0.095143
2011-01-13 08:09:44 51°14.78 2°54.774 5.0035 2.705659 27.545906 -0.199615
2011-01-13 08:09:49 51°14.794 2°54.758 5.0104 2.705659 27.545906 -0.199615
2011-01-13 08:09:54 51°14.808 2°54.741 5.0168 2.745352 27.984454 -0.129967
2011-01-13 08:09:59 51°14.822 2°54.725 5.0281 2.783574 28.401924 -0.164791
2011-01-13 08:10:05 51°14.838 2°54.705 5.0436 2.834436 28.959144 -0.164791
2011-01-13 08:10:10 51°14.852 2°54.689 5.0421 2.879827 29.453933 -0.234439
2011-01-13 08:10:15 51°14.865 2°54.673 5.0365 2.92796 29.983416 -0.095143
2011-01-13 08:10:21 51°14.88 2°54.651 5.035 2.92796 29.983416 -0.095143
2011-01-13 08:10:26 51°14.894 2°54.635 5.0306 2.961666 30.347993 -0.164791
2011-01-13 08:10:30 51°14.905 2°54.621 5.0241 2.993478 30.693747 -0.095143
2011-01-13 08:10:35 51°14.92 2°54.605 5.0207 3.011387 30.883748 -0.095143
2011-01-13 08:10:40 51°14.934 2°54.588 5.0147 3.025924 31.034748 -0.129967
2011-01-13 08:10:46 51°14.95 2°54.568 5.0086 3.043412 31.222439 -0.095143
2011-01-13 08:10:50 51°14.961 2°54.554 5.0037 3.043412 31.222439 -0.095143
2011-01-13 08:10:55 51°14.975 2°54.537 4.9994 3.06069 31.411886 -0.095143
2011-01-13 08:11:00 51°14.989 2°54.521 4.9979 3.071226 31.528993 -0.095143
2011-01-13 08:11:05 51°15.003 2°54.504 4.9938 3.084817 31.684156 -0.060319
2011-01-13 08:11:10 51°15.018 2°54.487 4.9889 3.100305 31.862655 -0.060319
2011-01-13 08:11:14 51°15.029 2°54.474 4.9871 3.107575 31.947825 -0.060319
2011-01-13 08:11:19 51°15.044 2°54.458 4.9862 3.107575 31.947825 -0.060319
2011-01-13 08:11:24 51°15.058 2°54.441 4.9851 3.112738 32.013243 -0.060319
2011-01-13 08:11:29 51°15.072 2°54.424 4.9832 3.12654 32.174562 -0.095143
2011-01-13 08:11:34 51°15.086 2°54.407 4.9851 3.133916 32.264474 -0.025495
2011-01-13 08:11:38 51°15.097 2°54.393 4.9909 3.139817 32.338479 -0.060319
2011-01-13 08:11:43 51°15.111 2°54.376 4.9893 3.146034 32.413598 -0.060319
2011-01-13 08:11:49 51°15.128 2°54.356 4.9914 3.146034 32.413598 -0.060319
2011-01-13 08:11:54 51°15.141 2°54.338 4.9924 3.154463 32.511455 -0.095143
2011-01-13 08:11:58 51°15.152 2°54.324 4.9969 3.154464 32.515707 -0.025495
2011-01-13 08:12:03 51°15.166 2°54.307 4.9964 3.156782 32.543865 -0.025495
2011-01-13 08:12:07 51°15.177 2°54.293 4.9951 3.165422 32.64421 -0.060319
2011-01-13 08:12:13 51°15.193 2°54.272 4.9936 3.16479 32.636137 -0.060319
2011-01-13 08:12:18 51°15.207 2°54.255 4.9975 3.16479 32.636137 -0.060319
2011-01-13 08:12:22 51°15.218 2°54.241 4.9958 3.167424 32.667927 0.009329
2011-01-13 08:12:27 51°15.233 2°54.224 4.9982 3.17459 32.7472 0.009329
2011-01-13 08:12:32 51°15.246 2°54.206 4.9937 3.177646 32.77868 0.044153
2011-01-13 08:12:37 51°15.261 2°54.189 4.9982 3.181861 32.825118 -0.025495
2011-01-13 08:12:42 51°15.275 2°54.171 5.003 3.184917 32.860894 0.148626
2011-01-13 08:12:46 51°15.285 2°54.157 5.0032 3.184917 32.860894 0.148626
2011-01-13 08:12:52 51°15.303 2°54.137 5.0022 3.189659 32.913366 -0.025495
2011-01-13 08:12:57 51°15.316 2°54.12 4.9989 3.192082 32.941068 0.044153
2011-01-13 08:13:03 51°15.333 2°54.101 4.9969 3.193874 32.962408 0.044153
2011-01-13 08:13:07 51°15.344 2°54.088 5.0031 3.194401 32.966706 0.113802
2011-01-13 08:13:12 51°15.358 2°54.071 5.0022 3.192925 32.950704 0.044153
2011-01-13 08:13:17 51°15.371 2°54.055 4.9995 3.192925 32.950704 0.044153
2011-01-13 08:13:22 51°15.385 2°54.04 4.9987 3.193874 32.959821 0.148626
2011-01-13 08:13:27 51°15.398 2°54.023 4.9976 3.18713 32.880162 0.218274
2011-01-13 08:13:31 51°15.409 2°54.01 4.9917 3.195138 32.971689 0.044153
2011-01-13 08:13:37 51°15.425 2°53.99 4.9892 3.195981 32.982188 0.113802
2011-01-13 08:13:42 51°15.438 2°53.974 4.9906 3.19693 32.99303 0.078977
2011-01-13 08:13:47 51°15.452 2°53.956 4.9843 3.19693 32.99303 0.078977
2011-01-13 08:13:52 51°15.465 2°53.939 4.9859 3.196824 32.989237 0.18345
2011-01-13 08:13:57 51°15.479 2°53.922 4.9852 3.194822 32.967213 0.113802
2011-01-13 08:14:02 51°15.492 2°53.904 4.9811 3.194928 32.96928 -0.025495
2011-01-13 08:14:07 51°15.506 2°53.887 4.9777 3.193979 32.95844 0.148626
2011-01-13 08:14:12 51°15.519 2°53.87 4.9808 3.191029 32.929023 -0.025495
2011-01-13 08:14:17 51°15.533 2°53.852 4.975 3.191029 32.929023 -0.025495
2011-01-13 08:14:22 51°15.546 2°53.834 4.9754 3.19008 32.921628 0.113802
2011-01-13 08:14:27 51°15.559 2°53.816 4.9747 3.18576 32.873967 0.009329
2011-01-13 08:14:31 51°15.57 2°53.801 4.9745 3.186814 32.889453 0.044153
2011-01-13 08:14:37 51°15.586 2°53.78 4.9694 3.185128 32.871901 0.113802
2011-01-13 08:14:42 51°15.599 2°53.762 4.973 3.18165 32.834734 0.078977
2011-01-13 08:14:47 51°15.612 2°53.744 4.9715 3.18165 32.834734 0.078977
2011-01-13 08:14:52 51°15.626 2°53.726 4.9721 3.183231 32.85366 0.148626
2011-01-13 08:14:57 51°15.639 2°53.708 4.9686 3.182177 32.845913 0.148626
2011-01-13 08:15:02 51°15.653 2°53.69 4.965 3.179121 32.809265 0.044153
2011-01-13 08:15:07 51°15.666 2°53.672 4.9684 3.178384 32.80341 0.148626
2011-01-13 08:15:12 51°15.68 2°53.654 4.9691 3.177857 32.799105 0.18345
2011-01-13 08:15:17 51°15.693 2°53.636 4.9664 3.177857 32.799105 0.18345
2011-01-13 08:15:22 51°15.706 2°53.616 4.97 3.176698 32.788431 0.009329
2011-01-13 08:15:27 51°15.719 2°53.599 4.971 3.174801 32.766752 0.044153
2011-01-13 08:15:32 51°15.732 2°53.579 4.9746 3.172588 32.741462 0.078977
2011-01-13 08:15:37 51°15.745 2°53.563 4.9802 3.172166 32.736645 0.287922
2011-01-13 08:15:42 51°15.759 2°53.546 4.9822 3.171956 32.735951 0.078977
2011-01-13 08:15:47 51°15.773 2°53.53 4.9803 3.171956 32.735951 0.078977
2011-01-13 08:15:52 51°15.787 2°53.514 4.9777 3.169848 32.714436 0.18345
2011-01-13 08:15:57 51°15.801 2°53.499 4.9843 3.171007 32.727683 0.078977
2011-01-13 08:16:02 51°15.816 2°53.482 4.9854 3.168794 32.701538 0.148626
2011-01-13 08:16:07 51°15.831 2°53.467 4.9806 3.169111 32.702582 0.113802
2011-01-13 08:16:12 51°15.846 2°53.453 4.9792 3.171113 32.723747 0.044153
2011-01-13 08:16:17 51°15.862 2°53.438 4.9837 3.171113 32.723747 0.044153
2011-01-13 08:16:22 51°15.878 2°53.424 4.9855 3.170375 32.711038 0.113802
2011-01-13 08:16:27 51°15.894 2°53.41 4.982 3.171745 32.724976 0.078977
2011-01-13 08:16:32 51°15.909 2°53.395 4.9794 3.170796 32.715853 0.078977
2011-01-13 08:16:37 51°15.925 2°53.384 4.9752 3.174168 32.753525 0.009329
2011-01-13 08:16:42 51°15.941 2°53.37 4.9768 3.171323 32.72016 0.18345
2011-01-13 08:16:47 51°15.957 2°53.358 4.9783 3.171323 32.72016 0.18345
2011-01-13 08:16:52 51°15.973 2°53.344 4.9771 3.175328 32.764198 -0.025495
2011-01-13 08:16:57 51°15.989 2°53.333 4.9801 3.17596 32.771422 0.148626
2011-01-13 08:17:02 51°16.005 2°53.318 4.9747 3.172272 32.729283 0.18345
2011-01-13 08:17:07 51°16.021 2°53.305 4.9727 3.173747 32.746994 0.148626
2011-01-13 08:17:11 51°16.033 2°53.295 4.9718 3.177646 32.791547 0.009329
2011-01-13 08:17:17 51°16.053 2°53.281 4.9657 3.177646 32.791547 0.009329
2011-01-13 08:17:22 51°16.069 2°53.268 4.9674 3.175012 32.76573 0.18345
2011-01-13 08:17:27 51°16.086 2°53.256 4.9654 3.179648 32.819581 -0.095143
2011-01-13 08:17:32 51°16.101 2°53.243 4.9649 3.178489 32.803756 0.113802
2011-01-13 08:17:37 51°16.118 2°53.232 4.9607 3.181334 32.838855 0.044153
2011-01-13 08:17:42 51°16.134 2°53.218 4.9579 3.179437 32.815454 0.009329
2011-01-13 08:17:47 51°16.15 2°53.205 4.9596 3.179437 32.815454 0.009329
2011-01-13 08:17:52 51°16.166 2°53.193 4.9655 3.184495 32.876718 0.113802
2011-01-13 08:17:57 51°16.182 2°53.181 4.9565 3.183863 32.871209 0.18345
2011-01-13 08:18:02 51°16.199 2°53.17 4.9568 3.182915 32.862946 -0.025495
2011-01-13 08:18:07 51°16.215 2°53.157 4.9565 3.183231 32.868282 -0.025495
2011-01-13 08:18:12 51°16.231 2°53.144 4.954 3.187446 32.920798 0.009329
2011-01-13 08:18:17 51°16.247 2°53.132 4.9593 3.187446 32.920798 0.009329
2011-01-13 08:18:22 51°16.263 2°53.12 4.9652 3.184179 32.884293 -0.060319
2011-01-13 08:18:27 51°16.279 2°53.108 4.9635 3.187341 32.918731 0.18345
2011-01-13 08:18:32 51°16.295 2°53.095 4.962 3.188289 32.933891 0.044153
2011-01-13 08:18:37 51°16.311 2°53.082 4.9624 3.190186 32.958183 0.009329
2011-01-13 08:18:42 51°16.327 2°53.07 4.9692 3.1885 32.941479 0.009329
2011-01-13 08:18:47 51°16.343 2°53.058 4.9717 3.1885 32.941479 0.009329
2011-01-13 08:18:52 51°16.36 2°53.047 4.9684 3.19145 32.97179 0.044153
2011-01-13 08:18:57 51°16.376 2°53.033 4.9684 3.188711 32.942165 0.148626
2011-01-13 08:19:02 51°16.392 2°53.021 4.9721 3.191767 32.972817 0.113802
2011-01-13 08:19:07 51°16.408 2°53.01 4.9753 3.193558 32.995909 0.113802
2011-01-13 08:19:12 51°16.424 2°52.999 4.9814 3.192188 32.976777 0.009329
2011-01-13 08:19:17 51°16.44 2°52.986 4.9857 3.192188 32.976777 0.009329
2011-01-13 08:19:22 51°16.455 2°52.974 4.987 3.193979 32.994684 0.113802
2011-01-13 08:19:27 51°16.471 2°52.96 4.9941 3.193242 32.987107 0.078977
2011-01-13 08:19:32 51°16.487 2°52.949 4.9945 3.197352 33.032408 0.113802
2011-01-13 08:19:36 51°16.499 2°52.938 4.9955 3.1983 33.039802 0.044153
2011-01-13 08:19:42 51°16.519 2°52.923 4.9984 3.199038 33.050839 0.078977
2011-01-13 08:19:47 51°16.534 2°52.91 5.0004 3.199038 33.050839 0.078977
2011-01-13 08:19:52 51°16.551 2°52.898 4.9996 3.199248 33.04979 0.148626
2011-01-13 08:19:57 51°16.567 2°52.885 5.0028 3.200934 33.063026 0.18345
2011-01-13 08:20:02 51°16.583 2°52.873 5.0039 3.202094 33.073693 0.078977
2011-01-13 08:20:07 51°16.599 2°52.86 5.007 3.201988 33.067295 0.113802
2011-01-13 08:20:12 51°16.616 2°52.848 5.0099 3.201672 33.061082 0.113802
2011-01-13 08:20:17 51°16.632 2°52.836 5.0103 3.201672 33.061082 0.113802
2011-01-13 08:20:22 51°16.647 2°52.822 5.0103 3.205782 33.104636 0.078977
2011-01-13 08:20:27 51°16.664 2°52.81 5.0127 3.207679 33.12547 0.078977
2011-01-13 08:20:32 51°16.68 2°52.797 5.0169 3.20399 33.079814 0.113802
2011-01-13 08:20:37 51°16.696 2°52.785 5.0144 3.208311 33.126638 0.044153
2011-01-13 08:20:42 51°16.712 2°52.771 5.0185 3.207784 33.119744 0.009329
2011-01-13 08:20:47 51°16.729 2°52.76 5.0179 3.207784 33.119744 0.009329
2011-01-13 08:20:52 51°16.744 2°52.747 5.0169 3.211051 33.154513 0.044153
2011-01-13 08:20:57 51°16.76 2°52.734 5.0155 3.208205 33.121966 0.148626
2011-01-13 08:21:02 51°16.775 2°52.721 5.018 3.208838 33.126599 0.218274
2011-01-13 08:21:07 51°16.791 2°52.707 5.0184 3.212104 33.163099 0.148626
2011-01-13 08:21:12 51°16.807 2°52.694 5.0154 3.208416 33.117448 0.18345
2011-01-13 08:21:18 51°16.826 2°52.678 5.0094 3.208416 33.117448 0.18345
2011-01-13 08:21:22 51°16.839 2°52.667 5.0081 3.213791 33.177181 0.18345
2011-01-13 08:21:28 51°16.858 2°52.651 5.0113 3.210945 33.142039 0.113802
2011-01-13 08:21:32 51°16.87 2°52.641 5.0036 3.214212 33.1794 0.18345
2011-01-13 08:21:37 51°16.886 2°52.628 5.0019 3.212842 33.162864 0.18345
2011-01-13 08:21:42 51°16.902 2°52.616 4.9996 3.212421 33.158911 0.148626
2011-01-13 08:21:47 51°16.918 2°52.602 4.9988 3.212421 33.158911 0.148626
2011-01-13 08:21:52 51°16.934 2°52.589 5.0001 3.21495 33.188705 0.148626
2011-01-13 08:21:57 51°16.95 2°52.575 5.0018 3.216425 33.207317 0.18345
2011-01-13 08:22:02 51°16.967 2°52.564 4.9974 3.217795 33.223858 0.148626
2011-01-13 08:22:07 51°16.983 2°52.552 4.9981 3.21632 33.208716 0.113802
2011-01-13 08:22:12 51°17 2°52.541 5.0042 3.215687 33.206693 0.18345
2011-01-13 08:22:16 51°17.014 2°52.534 5.0033 3.215687 33.206693 0.18345
2011-01-13 08:22:22 51°17.034 2°52.52 5.0075 3.217479 33.229799 0.218274
2011-01-13 08:22:27 51°17.052 2°52.512 5.0131 3.217374 33.230332 0.253098
2011-01-13 08:22:32 51°17.069 2°52.501 5.012 3.218744 33.243402 0.18345
2011-01-13 08:22:36 51°17.083 2°52.495 5.0131 3.218322 33.239447 0.18345
2011-01-13 08:22:42 51°17.103 2°52.485 5.0129 3.218533 33.243599 0.18345
2011-01-13 08:22:47 51°17.121 2°52.476 5.0161 3.218533 33.243599 0.18345
2011-01-13 08:22:52 51°17.136 2°52.463 5.0168 3.218111 33.238774 0.18345
2011-01-13 08:22:57 51°17.153 2°52.454 5.0174 3.218638 33.241326 0.218274
2011-01-13 08:23:02 51°17.17 2°52.443 5.0141 3.218533 33.237512 0.218274
2011-01-13 08:23:07 51°17.187 2°52.434 5.0146 3.220851 33.261433 0.253098
2011-01-13 08:23:12 51°17.205 2°52.424 5.0142 3.221062 33.262105 0.218274
2011-01-13 08:23:16 51°17.218 2°52.416 5.0082 3.221062 33.262105 0.218274
2011-01-13 08:23:22 51°17.239 2°52.405 5.0143 3.222959 33.284682 0.18345
2011-01-13 08:23:27 51°17.257 2°52.397 5.0043 3.222959 33.281201 0.148626
2011-01-13 08:23:32 51°17.275 2°52.388 5.0054 3.222432 33.276912 0.078977
2011-01-13 08:23:37 51°17.292 2°52.379 5.0091 3.222853 33.278254 0.113802
2011-01-13 08:23:42 51°17.31 2°52.373 5.0071 3.225066 33.305319 0.218274
2011-01-13 08:23:47 51°17.328 2°52.366 5.0004 3.225066 33.305319 0.218274
2011-01-13 08:23:52 51°17.346 2°52.358 5.0026 3.223486 33.285489 0.113802
2011-01-13 08:23:57 51°17.365 2°52.353 4.998 3.226226 33.319457 0.253098
2011-01-13 08:24:02 51°17.382 2°52.344 4.9983 3.223064 33.282406 0.148626
2011-01-13 08:24:07 51°17.4 2°52.341 4.9991 3.223064 33.286758 0.218274
2011-01-13 08:24:12 51°17.418 2°52.333 4.9937 3.221905 33.272622 0.113802
2011-01-13 08:24:16 51°17.432 2°52.328 4.9906 3.221905 33.272622 0.113802
2011-01-13 08:24:22 51°17.454 2°52.319 4.9946 3.222221 33.277981 0.148626
2011-01-13 08:24:27 51°17.472 2°52.314 4.9879 3.222853 33.285217 0.253098
2011-01-13 08:24:32 51°17.49 2°52.307 4.9878 3.222748 33.287493 0.113802
2011-01-13 08:24:37 51°17.508 2°52.301 4.983 3.222327 33.286151 0.18345
2011-01-13 08:24:42 51°17.526 2°52.297 4.9794 3.221167 33.274623 0.148626
2011-01-13 08:24:47 51°17.543 2°52.289 4.9787 3.221167 33.274623 0.148626
2011-01-13 08:24:52 51°17.562 2°52.285 4.9596 3.221484 33.279983 0.218274
2011-01-13 08:24:57 51°17.58 2°52.277 4.9592 3.219903 33.26624 0.113802
2011-01-13 08:25:02 51°17.598 2°52.273 4.9498 3.219271 33.259872 0.253098
2011-01-13 08:25:07 51°17.616 2°52.267 4.9391 3.218533 33.252297 0.148626
2011-01-13 08:25:12 51°17.634 2°52.26 4.9308 3.218954 33.258863 0.287922
2011-01-13 08:25:17 51°17.652 2°52.254 4.9247 3.218954 33.258863 0.287922
2011-01-13 08:25:22 51°17.67 2°52.247 4.9175 3.216952 33.24029 0.113802
2011-01-13 08:25:27 51°17.688 2°52.243 4.9061 3.216425 33.235997 0.218274
2011-01-13 08:25:32 51°17.707 2°52.236 4.8949 3.214529 33.220367 0.253098
2011-01-13 08:25:37 51°17.725 2°52.23 4.9005 3.212421 33.206666 0.218274
2011-01-13 08:25:42 51°17.743 2°52.226 4.8894 3.209997 33.189337 0.287922
2011-01-13 08:25:47 51°17.761 2°52.219 4.8807 3.209997 33.189337 0.287922
2011-01-13 08:25:52 51°17.778 2°52.21 4.8864 3.207363 33.167849 0.009329
2011-01-13 08:25:57 51°17.796 2°52.203 4.8875 3.205888 33.158766 0.218274
2011-01-13 08:26:02 51°17.814 2°52.196 4.8845 3.205255 33.158474 0.218274
2011-01-13 08:26:07 51°17.832 2°52.191 4.8809 3.202094 33.137011 0.078977
2011-01-13 08:26:12 51°17.851 2°52.19 4.8745 3.200092 33.121008 0.253098
2011-01-13 08:26:17 51°17.869 2°52.185 4.8698 3.200092 33.121008 0.253098
2011-01-13 08:26:22 51°17.887 2°52.183 4.8717 3.198722 33.113119 0.113802
2011-01-13 08:26:27 51°17.906 2°52.181 4.8732 3.19809 33.108475 0.18345
2011-01-13 08:26:32 51°17.925 2°52.18 4.877 3.197036 33.10334 0.113802
2011-01-13 08:26:37 51°17.944 2°52.183 4.8743 3.196404 33.097825 0.218274
2011-01-13 08:26:42 51°17.962 2°52.182 4.8697 3.195561 33.089024 0.148626
2011-01-13 08:26:47 51°17.981 2°52.185 4.8664 3.195561 33.089024 0.148626
2011-01-13 08:26:52 51°18 2°52.185 4.8703 3.196931 33.109953 0.218274
2011-01-13 08:26:56 51°18.015 2°52.188 4.8652 3.197879 33.124312 0.218274
2011-01-13 08:27:02 51°18.038 2°52.191 4.8684 3.194823 33.08838 0.18345
2011-01-13 08:27:07 51°18.056 2°52.189 4.8727 3.194718 33.089778 0.218274
2011-01-13 08:27:12 51°18.075 2°52.193 4.8675 3.19672 33.11449 0.253098
2011-01-13 08:27:16 51°18.09 2°52.193 4.8746 3.19672 33.11449 0.253098
2011-01-13 08:27:22 51°18.113 2°52.198 4.8688 3.196509 33.110333 0.18345
2011-01-13 08:27:27 51°18.131 2°52.199 4.8687 3.197563 33.124164 0.218274
2011-01-13 08:27:32 51°18.15 2°52.203 4.8698 3.197353 33.123485 0.253098
2011-01-13 08:27:36 51°18.165 2°52.206 4.8698 3.198301 33.134369 0.287922
2011-01-13 08:27:42 51°18.187 2°52.212 4.8659 3.196088 33.113322 0.218274
2011-01-13 08:27:47 51°18.206 2°52.213 4.8703 3.196088 33.113322 0.218274
2011-01-13 08:27:52 51°18.224 2°52.215 4.8687 3.19535 33.104856 0.148626
2011-01-13 08:27:57 51°18.243 2°52.217 4.8713 3.196931 33.122997 0.253098
2011-01-13 08:28:02 51°18.261 2°52.219 4.8716 3.199566 33.153236 0.253098
2011-01-13 08:28:07 51°18.281 2°52.223 4.8776 3.198933 33.145108 0.18345
2011-01-13 08:28:12 51°18.299 2°52.229 4.8701 3.197669 33.131464 0.287922
2011-01-13 08:28:16 51°18.314 2°52.231 4.8657 3.197669 33.131464 0.287922
2011-01-13 08:28:22 51°18.336 2°52.232 4.8677 3.198406 33.140801 0.18345
2011-01-13 08:28:27 51°18.355 2°52.235 4.8757 3.199144 33.148398 0.253098
2011-01-13 08:28:32 51°18.374 2°52.238 4.8691 3.200409 33.162913 0.18345
2011-01-13 08:28:36 51°18.389 2°52.241 4.8722 3.197353 33.125225 0.148626
2011-01-13 08:28:42 51°18.412 2°52.242 4.8816 3.200619 33.160107 0.287922
2011-01-13 08:28:47 51°18.43 2°52.248 4.8787 3.200619 33.160107 0.287922
2011-01-13 08:28:52 51°18.449 2°52.251 4.8801 3.198196 33.135771 0.18345
2011-01-13 08:28:56 51°18.464 2°52.251 4.8857 3.201041 33.1693 0.148626
2011-01-13 08:29:02 51°18.487 2°52.257 4.8716 3.200725 33.167413 0.18345
2011-01-13 08:29:07 51°18.506 2°52.257 4.8752 3.200409 33.161171 0.078977
2011-01-13 08:29:12 51°18.524 2°52.259 4.8812 3.200935 33.168962 0.218274
2011-01-13 08:29:17 51°18.543 2°52.26 4.8799 3.200935 33.168962 0.218274
2011-01-13 08:29:22 51°18.562 2°52.262 4.8794 3.201568 33.173606 0.18345
2011-01-13 08:29:27 51°18.581 2°52.267 4.8761 3.201041 33.165816 0.253098
2011-01-13 08:29:32 51°18.6 2°52.268 4.87 3.201778 33.17254 0.148626
2011-01-13 08:29:37 51°18.619 2°52.268 4.8765 3.202938 33.184103 0.18345
2011-01-13 08:29:42 51°18.637 2°52.273 4.8755 3.203781 33.193779 0.253098
2011-01-13 08:29:47 51°18.656 2°52.274 4.8701 3.203781 33.193779 0.253098
2011-01-13 08:29:52 51°18.675 2°52.276 4.875 3.203991 33.195327 0.18345
2011-01-13 08:29:57 51°18.694 2°52.278 4.8848 3.204202 33.196874 0.253098
2011-01-13 08:30:02 51°18.713 2°52.28 4.8827 3.205045 33.211783 0.218274
2011-01-13 08:30:07 51°18.731 2°52.285 4.8811 3.205256 33.213331 0.253098
2011-01-13 08:30:12 51°18.75 2°52.287 4.8813 3.205783 33.221125 0.218274
2011-01-13 08:30:17 51°18.769 2°52.288 4.8875 3.205783 33.221125 0.218274
2011-01-13 08:30:22 51°18.788 2°52.292 4.891 3.205783 33.22287 0.148626
2011-01-13 08:30:27 51°18.807 2°52.296 4.8864 3.206942 33.237052 0.253098
2011-01-13 08:30:32 51°18.826 2°52.298 4.8863 3.206521 33.229594 0.113802
2011-01-13 08:30:37 51°18.845 2°52.304 4.8855 3.207996 33.243914 0.287922
2011-01-13 08:30:42 51°18.864 2°52.302 4.8891 3.207364 33.234036 0.078977
2011-01-13 08:30:47 51°18.883 2°52.307 4.8955 3.207364 33.234036 0.078977
2011-01-13 08:30:52 51°18.902 2°52.306 4.8978 3.208101 33.241632 0.218274
2011-01-13 08:30:56 51°18.917 2°52.31 4.9009 3.209998 33.262536 0.218274
2011-01-13 08:31:02 51°18.94 2°52.314 4.9046 3.210525 33.265965 0.148626
2011-01-13 08:31:07 51°18.959 2°52.314 4.8957 3.210525 33.262471 0.113802
2011-01-13 08:31:12 51°18.978 2°52.318 4.8904 3.211579 33.277189 0.218274
2011-01-13 08:31:17 51°18.997 2°52.32 4.8912 3.211579 33.277189 0.218274
2011-01-13 08:31:22 51°19.015 2°52.322 4.8876 3.211263 33.270939 0.078977
2011-01-13 08:31:27 51°19.034 2°52.327 4.8845 3.21179 33.275241 0.218274
2011-01-13 08:31:32 51°19.053 2°52.327 4.8869 3.211684 33.270537 0.18345
2011-01-13 08:31:37 51°19.072 2°52.329 4.8919 3.211684 33.267918 0.148626
2011-01-13 08:31:42 51°19.091 2°52.33 4.8906 3.212633 33.277056 0.253098
2011-01-13 08:31:47 51°19.11 2°52.333 4.8918 3.212633 33.277056 0.253098
2011-01-13 08:31:52 51°19.129 2°52.333 4.8985 3.211263 33.264826 0.113802
2011-01-13 08:31:57 51°19.147 2°52.338 4.8967 3.212949 33.285926 0.148626
2011-01-13 08:32:02 51°19.166 2°52.341 4.8882 3.213686 33.295268 0.218274
2011-01-13 08:32:07 51°19.185 2°52.339 4.889 3.212949 33.292043 0.113802
2011-01-13 08:32:12 51°19.203 2°52.341 4.8919 3.214951 33.312409 0.18345
2011-01-13 08:32:16 51°19.218 2°52.341 4.893 3.214951 33.312409 0.18345
2011-01-13 08:32:22 51°19.241 2°52.343 4.893 3.214635 33.309653 0.113802
2011-01-13 08:32:27 51°19.26 2°52.341 4.8974 3.213686 33.29789 0.078977
2011-01-13 08:32:32 51°19.279 2°52.342 4.8983 3.215478 33.317583 0.218274
2011-01-13 08:32:37 51°19.298 2°52.339 4.8998 3.215478 33.316709 0.078977
2011-01-13 08:32:42 51°19.316 2°52.341 4.8937 3.216742 33.329478 0.253098
2011-01-13 08:32:47 51°19.335 2°52.341 4.9002 3.216742 33.329478 0.253098
2011-01-13 08:32:52 51°19.354 2°52.338 4.8951 3.215689 33.319129 0.044153
2011-01-13 08:32:57 51°19.373 2°52.337 4.8931 3.21748 33.341448 0.218274
2011-01-13 08:33:02 51°19.391 2°52.336 4.893 3.218323 33.349378 0.18345
2011-01-13 08:33:07 51°19.411 2°52.335 4.8957 3.218955 33.354011 0.078977
2011-01-13 08:33:12 51°19.429 2°52.332 4.9019 3.219904 33.362274 0.078977
2011-01-13 08:33:17 51°19.448 2°52.331 4.9031 3.219904 33.362274 0.078977
2011-01-13 08:33:22 51°19.466 2°52.327 4.9017 3.219693 33.362481 -0.060319
2011-01-13 08:33:27 51°19.485 2°52.328 4.9055 3.221379 33.381843 0.18345
2011-01-13 08:33:32 51°19.504 2°52.323 4.8998 3.221169 33.375918 0.044153
2011-01-13 08:33:37 51°19.522 2°52.323 4.9 3.222012 33.388227 0.148626
2011-01-13 08:33:42 51°19.541 2°52.322 4.8938 3.222433 33.392191 0.009329
2011-01-13 08:33:47 51°19.56 2°52.32 4.8933 3.222433 33.392191 0.009329
2011-01-13 08:33:52 51°19.579 2°52.321 4.8979 3.222433 33.390438 0.113802
2011-01-13 08:33:57 51°19.598 2°52.32 4.8962 3.222749 33.392316 0.18345
2011-01-13 08:34:02 51°19.617 2°52.322 4.894 3.222749 33.390563 0.113802
2011-01-13 08:34:07 51°19.636 2°52.322 4.8957 3.221379 33.37571 0.113802
2011-01-13 08:34:12 51°19.655 2°52.323 4.8875 3.221379 33.377462 0.078977
2011-01-13 08:34:16 51°19.67 2°52.323 4.8914 3.221379 33.377462 0.078977
2011-01-13 08:34:22 51°19.692 2°52.318 4.8995 3.219272 33.354139 0.009329
2011-01-13 08:34:27 51°19.711 2°52.318 4.8948 3.219061 33.35347 0.18345
2011-01-13 08:34:32 51°19.73 2°52.316 4.8974 3.218955 33.35226 0.113802
2011-01-13 08:34:37 51°19.749 2°52.32 4.8863 3.217375 33.334987 0.18345
2011-01-13 08:34:42 51°19.767 2°52.314 4.8885 3.216216 33.31993 0.009329
2011-01-13 08:34:47 51°19.785 2°52.313 4.8893 3.216216 33.31993 0.009329
2011-01-13 08:34:52 51°19.804 2°52.312 4.8921 3.215478 33.314085 0.18345
2011-01-13 08:34:57 51°19.822 2°52.309 4.8855 3.214529 33.304072 0.044153
2011-01-13 08:35:03 51°19.845 2°52.312 4.8695 3.214635 33.304407 0.18345
2011-01-13 08:35:07 51°19.859 2°52.306 4.8644 3.213686 33.29352 0.009329
2011-01-13 08:35:12 51°19.877 2°52.305 4.8757 3.215056 33.310121 0.18345
2011-01-13 08:35:17 51°19.895 2°52.302 4.8582 3.215056 33.310121 0.18345
2011-01-13 08:35:22 51°19.914 2°52.302 4.8531 3.21474 33.307366 0.148626
2011-01-13 08:35:27 51°19.933 2°52.3 4.8409 3.214319 33.306024 0.148626
2011-01-13 08:35:32 51°19.951 2°52.299 4.8398 3.21316 33.294463 0.113802
2011-01-13 08:35:36 51°19.966 2°52.299 4.8306 3.212422 33.286868 0.113802
2011-01-13 08:35:42 51°19.988 2°52.298 4.8203 3.212211 33.290567 0.148626
2011-01-13 08:35:47 51°20.007 2°52.297 4.8085 3.212211 33.290567 0.148626
2011-01-13 08:35:52 51°20.025 2°52.3 4.8033 3.210104 33.266366 0.18345
2011-01-13 08:35:56 51°20.041 2°52.297 4.7979 3.209261 33.262801 0.148626
2011-01-13 08:36:02 51°20.062 2°52.294 4.8091 3.206942 33.244911 0.113802
2011-01-13 08:36:07 51°20.08 2°52.292 4.7926 3.204729 33.226479 0.18345
2011-01-13 08:36:12 51°20.1 2°52.29 4.7831 3.203359 33.220347 -0.025495
2011-01-13 08:36:16 51°20.114 2°52.286 4.7842 3.203359 33.220347 -0.025495
2011-01-13 08:36:22 51°20.137 2°52.287 4.7732 3.201252 33.206608 0.148626
2011-01-13 08:36:27 51°20.155 2°52.284 4.7731 3.19925 33.191456 -0.060319
2011-01-13 08:36:32 51°20.174 2°52.286 4.7628 3.197985 33.189144 0.18345
2011-01-13 08:36:37 51°20.192 2°52.281 4.7685 3.195667 33.164237 0.078977
2011-01-13 08:36:42 51°20.211 2°52.281 4.7562 3.19493 33.163611 0.148626
2011-01-13 08:36:47 51°20.229 2°52.275 4.7417 3.19493 33.163611 0.148626
2011-01-13 08:36:52 51°20.247 2°52.275 4.743 3.194087 33.1609 0.078977
2011-01-13 08:36:57 51°20.266 2°52.27 4.7294 3.192928 33.156298 0.113802
2011-01-13 08:37:02 51°20.284 2°52.266 4.7207 3.191874 33.145922 0.18345
2011-01-13 08:37:07 51°20.302 2°52.263 4.7087 3.191347 33.150338 0.148626
2011-01-13 08:37:12 51°20.32 2°52.26 4.7058 3.189556 33.130598 0.044153
2011-01-13 08:37:17 51°20.337 2°52.255 4.7072 3.189556 33.130598 0.044153
2011-01-13 08:37:22 51°20.355 2°52.255 4.6903 3.188397 33.130354 0.218274
2011-01-13 08:37:27 51°20.372 2°52.249 4.6848 3.186184 33.104885 0.078977
2011-01-13 08:37:32 51°20.389 2°52.245 4.6857 3.185025 33.104633 0.18345
2011-01-13 08:37:36 51°20.403 2°52.243 4.6898 3.185025 33.109871 0.18345
2011-01-13 08:37:42 51°20.422 2°52.235 4.6757 3.182496 33.092971 0.18345
2011-01-13 08:37:47 51°20.439 2°52.232 4.6727 3.182496 33.092971 0.18345
2011-01-13 08:37:52 51°20.455 2°52.226 4.6708 3.181442 33.088691 0.148626
2011-01-13 08:37:57 51°20.471 2°52.223 4.6608 3.180178 33.081109 0.044153
2011-01-13 08:38:02 51°20.487 2°52.215 4.651 3.180283 33.091057 0.113802
2011-01-13 08:38:07 51°20.502 2°52.206 4.6494 3.178176 33.072883 0.148626
2011-01-13 08:38:12 51°20.517 2°52.195 4.6546 3.177122 33.067724 0.113802
2011-01-13 08:38:17 51°20.531 2°52.185 4.6504 3.177122 33.067724 0.113802
2011-01-13 08:38:22 51°20.545 2°52.174 4.6472 3.177122 33.075586 0.113802
2011-01-13 08:38:27 51°20.558 2°52.16 4.6375 3.176595 33.073006 0.218274
2011-01-13 08:38:32 51°20.572 2°52.147 4.645 3.174382 33.054479 0.18345
2011-01-13 08:38:37 51°20.586 2°52.135 4.6349 3.175015 33.07051 0.113802
2011-01-13 08:38:42 51°20.599 2°52.121 4.6303 3.173118 33.055621 0.148626
2011-01-13 08:38:47 51°20.612 2°52.107 4.6279 3.173118 33.055621 0.148626
2011-01-13 08:38:52 51°20.626 2°52.094 4.6337 3.171748 33.044187 0.18345
2011-01-13 08:38:57 51°20.639 2°52.079 4.631 3.171116 33.041261 0.148626
2011-01-13 08:39:02 51°20.652 2°52.066 4.6414 3.171643 33.049963 0.113802
2011-01-13 08:39:07 51°20.665 2°52.053 4.6391 3.172591 33.06528 0.18345
2011-01-13 08:39:12 51°20.678 2°52.038 4.6252 3.169325 33.030201 0.148626
2011-01-13 08:39:17 51°20.692 2°52.025 4.6227 3.169325 33.030201 0.148626
2011-01-13 08:39:22 51°20.704 2°52.009 4.624 3.170695 33.052133 0.148626
2011-01-13 08:39:27 51°20.718 2°51.995 4.6331 3.169641 33.042592 0.148626
2011-01-13 08:39:32 51°20.731 2°51.981 4.6379 3.169957 33.04974 0.148626
2011-01-13 08:39:36 51°20.741 2°51.968 4.629 3.168693 33.034266 0.078977
2011-01-13 08:39:42 51°20.757 2°51.95 4.625 3.169219 33.037726 0.18345
2011-01-13 08:39:47 51°20.771 2°51.936 4.6321 3.169219 33.037726 0.18345
2011-01-13 08:39:52 51°20.784 2°51.922 4.6281 3.169219 33.037726 0.113802
2011-01-13 08:39:57 51°20.797 2°51.907 4.6256 3.167955 33.026625 0.18345
2011-01-13 08:40:02 51°20.811 2°51.892 4.6266 3.168376 33.034114 0.113802
2011-01-13 08:40:07 51°20.824 2°51.877 4.6266 3.168693 33.035141 0.113802
2011-01-13 08:40:12 51°20.837 2°51.861 4.6274 3.168482 33.032708 0.18345
2011-01-13 08:40:17 51°20.851 2°51.848 4.6295 3.168482 33.032708 0.18345
2011-01-13 08:40:22 51°20.864 2°51.833 4.6326 3.169219 33.040349 0.078977
2011-01-13 08:40:27 51°20.878 2°51.818 4.6302 3.167744 33.024192 0.113802
2011-01-13 08:40:32 51°20.891 2°51.803 4.6352 3.169114 33.041756 0.113802
2011-01-13 08:40:36 51°20.903 2°51.793 4.6355 3.168903 33.041946 0.18345
2011-01-13 08:40:42 51°20.919 2°51.775 4.6338 3.169536 33.050997 0.078977
2011-01-13 08:40:47 51°20.932 2°51.759 4.6368 3.169536 33.050997 0.078977
2011-01-13 08:40:52 51°20.946 2°51.746 4.6417 3.168693 33.038638 0.18345
2011-01-13 08:40:56 51°20.956 2°51.733 4.6404 3.169536 33.048372 0.044153
2011-01-13 08:41:02 51°20.973 2°51.715 4.6418 3.171116 33.063998 0.078977
2011-01-13 08:41:07 51°20.987 2°51.7 4.6458 3.170273 33.05339 0.044153
2011-01-13 08:41:12 51°21.001 2°51.686 4.6485 3.171748 33.067798 0.18345
2011-01-13 08:41:17 51°21.015 2°51.674 4.6529 3.171748 33.067798 0.18345
2011-01-13 08:41:23 51°21.03 2°51.657 4.6605 3.170168 33.051298 0.009329
2011-01-13 08:41:28 51°21.042 2°51.642 4.6621 3.172381 33.072472 -0.025495
2011-01-13 08:41:33 51°21.056 2°51.628 4.6646 3.170905 33.056315 0.078977
2011-01-13 08:41:38 51°21.07 2°51.614 4.6694 3.172907 33.075929 0.078977
2011-01-13 08:41:43 51°21.083 2°51.601 4.6729 3.174172 33.088777 0.148626
2011-01-13 08:41:48 51°21.097 2°51.589 4.6742 3.174172 33.088777 0.148626
2011-01-13 08:41:52 51°21.108 2°51.578 4.6791 3.17375 33.081285 0.078977
2011-01-13 08:41:58 51°21.125 2°51.563 4.6818 3.176069 33.10542 0.113802
2011-01-13 08:42:03 51°21.138 2°51.548 4.6827 3.175753 33.097393 0.078977
2011-01-13 08:42:07 51°21.149 2°51.538 4.6842 3.17786 33.117339 0.113802
2011-01-13 08:42:12 51°21.163 2°51.523 4.6887 3.177649 33.11228 0.148626
2011-01-13 08:42:17 51°21.177 2°51.51 4.6889 3.177649 33.11228 0.148626
2011-01-13 08:42:22 51°21.19 2°51.497 4.6933 3.179124 33.124926 0.113802
2011-01-13 08:42:27 51°21.204 2°51.484 4.6974 3.180284 33.135675 0.078977
2011-01-13 08:42:32 51°21.218 2°51.471 4.6996 3.182391 33.15649 0.218274
2011-01-13 08:42:36 51°21.228 2°51.46 4.6964 3.163107 32.929712 0.078977
2011-01-13 08:42:42 51°21.245 2°51.444 4.7016 3.184604 33.174135 0.113802
2011-01-13 08:42:47 51°21.259 2°51.43 4.7038 3.184604 33.174135 0.113802
2011-01-13 08:42:52 51°21.272 2°51.416 4.708 3.185974 33.186433 0.18345
2011-01-13 08:42:57 51°21.286 2°51.403 4.7106 3.185236 33.177922 0.148626
2011-01-13 08:43:02 51°21.3 2°51.39 4.7067 3.186922 33.19299 0.078977
2011-01-13 08:43:07 51°21.315 2°51.378 4.7087 3.185868 33.174697 0.113802
2011-01-13 08:43:12 51°21.329 2°51.365 4.7072 3.187027 33.188943 0.113802
2011-01-13 08:43:17 51°21.342 2°51.35 4.7109 3.187027 33.188943 0.113802
2011-01-13 08:43:22 51°21.357 2°51.337 4.7161 3.187344 33.190836 0.148626
2011-01-13 08:43:27 51°21.371 2°51.323 4.7167 3.188292 33.198268 0.148626
2011-01-13 08:43:32 51°21.384 2°51.31 4.7237 3.190505 33.220283 0.078977
2011-01-13 08:43:37 51°21.398 2°51.295 4.7316 3.191032 33.22285 0.044153
2011-01-13 08:43:42 51°21.412 2°51.283 4.7352 3.190926 33.221635 0.148626
2011-01-13 08:43:47 51°21.425 2°51.269 4.7413 3.190926 33.221635 0.148626
2011-01-13 08:43:52 51°21.44 2°51.255 4.7489 3.190505 33.218528 0.078977
2011-01-13 08:43:57 51°21.454 2°51.241 4.7558 3.192718 33.239662 0.18345
2011-01-13 08:44:02 51°21.467 2°51.227 4.7592 3.192928 33.241215 0.044153
2011-01-13 08:44:07 51°21.481 2°51.212 4.7671 3.193877 33.248641 0.078977
2011-01-13 08:44:12 51°21.495 2°51.199 4.7728 3.195141 33.257956 0.078977
2011-01-13 08:44:17 51°21.509 2°51.185 4.7775 3.195141 33.257956 0.078977
2011-01-13 08:44:22 51°21.523 2°51.171 4.7813 3.19472 33.247829 0.044153
2011-01-13 08:44:27 51°21.537 2°51.158 4.784 3.196933 33.268075 0.078977
2011-01-13 08:44:32 51°21.55 2°51.144 4.7864 3.199462 33.290204 0.148626
2011-01-13 08:44:36 51°21.562 2°51.134 4.7901 3.202518 33.31928 0.148626
2011-01-13 08:44:42 51°21.579 2°51.119 4.7941 3.203677 33.323851 0.113802
2011-01-13 08:44:47 51°21.595 2°51.108 4.794 3.203677 33.323851 0.113802
2011-01-13 08:44:52 51°21.61 2°51.098 4.796 3.20473 33.330722 0.113802
2011-01-13 08:44:56 51°21.622 2°51.09 4.7987 3.204836 33.324028 0.009329
2011-01-13 08:45:02 51°21.642 2°51.08 4.7986 3.206627 33.338515 0.044153
2011-01-13 08:45:07 51°21.657 2°51.071 4.8068 3.208629 33.355426 0.044153
2011-01-13 08:45:12 51°21.673 2°51.065 4.8083 3.209472 33.363378 0.078977
2011-01-13 08:45:17 51°21.689 2°51.055 4.8057 3.209472 33.363378 0.078977
2011-01-13 08:45:22 51°21.704 2°51.045 4.8071 3.209788 33.360867 0.148626
2011-01-13 08:45:27 51°21.72 2°51.036 4.8131 3.210948 33.371579 0.009329
2011-01-13 08:45:32 51°21.736 2°51.028 4.8125 3.214004 33.404134 0.044153
2011-01-13 08:45:37 51°21.752 2°51.02 4.8145 3.215057 33.41363 0.009329
2011-01-13 08:45:42 51°21.768 2°51.011 4.8141 3.215374 33.412871 0.009329
2011-01-13 08:45:47 51°21.784 2°51 4.825 3.215374 33.412871 0.009329
2011-01-13 08:45:52 51°21.8 2°50.994 4.815 3.216849 33.427219 -0.025495
2011-01-13 08:45:57 51°21.816 2°50.985 4.8163 3.21706 33.427885 0.044153
2011-01-13 08:46:02 51°21.833 2°50.976 4.8229 3.217797 33.434618 -0.025495
2011-01-13 08:46:07 51°21.848 2°50.966 4.8151 3.218851 33.44323 -0.025495
2011-01-13 08:46:12 51°21.865 2°50.959 4.8097 3.219799 33.451508 0.009329
2011-01-13 08:46:17 51°21.881 2°50.948 4.8161 3.219799 33.451508 0.009329
2011-01-13 08:46:22 51°21.897 2°50.94 4.817 3.220326 33.457574 -0.060319
2011-01-13 08:46:27 51°21.914 2°50.932 4.8136 3.220326 33.454052 -0.060319
2011-01-13 08:46:32 51°21.929 2°50.92 4.8141 3.221169 33.463757 0.009329
2011-01-13 08:46:37 51°21.944 2°50.91 4.8159 3.221169 33.460235 0.044153
2011-01-13 08:46:42 51°21.96 2°50.899 4.8188 3.221591 33.463326 0.009329
2011-01-13 08:46:47 51°21.976 2°50.89 4.8073 3.221591 33.463326 0.009329
2011-01-13 08:46:52 51°21.992 2°50.88 4.8143 3.221486 33.464755 -0.025495
2011-01-13 08:46:57 51°22.007 2°50.868 4.8085 3.221486 33.466516 -0.060319
2011-01-13 08:47:02 51°22.023 2°50.859 4.8093 3.221486 33.467397 0.009329
2011-01-13 08:47:07 51°22.039 2°50.847 4.8058 3.221591 33.469491 -0.025495
2011-01-13 08:47:12 51°22.055 2°50.839 4.799 3.221696 33.468943 0.009329
2011-01-13 08:47:17 51°22.069 2°50.826 4.7999 3.221696 33.468943 0.009329
2011-01-13 08:47:22 51°22.085 2°50.815 4.8004 3.221486 33.468278 -0.060319
2011-01-13 08:47:27 51°22.099 2°50.801 4.7879 3.22138 33.467946 -0.129967
2011-01-13 08:47:32 51°22.115 2°50.79 4.7864 3.221802 33.474561 -0.095143
2011-01-13 08:47:36 51°22.126 2°50.78 4.7852 3.221275 33.469375 -0.025495
2011-01-13 08:47:42 51°22.144 2°50.765 4.776 3.221169 33.470805 -0.060319
2011-01-13 08:47:47 51°22.159 2°50.751 4.7722 3.221169 33.470805 -0.060319
2011-01-13 08:47:52 51°22.173 2°50.739 4.7741 3.220748 33.467714 -0.095143
2011-01-13 08:47:57 51°22.188 2°50.725 4.7701 3.22001 33.460981 -0.060319
2011-01-13 08:48:02 51°22.203 2°50.712 4.7747 3.219483 33.457557 -0.060319
2011-01-13 08:48:07 51°22.217 2°50.699 4.7773 3.217481 33.443306 -0.095143
2011-01-13 08:48:12 51°22.231 2°50.685 4.7729 3.211264 33.372582 -0.129967
2011-01-13 08:48:17 51°22.246 2°50.673 4.7706 3.211264 33.372582 -0.129967
2011-01-13 08:48:22 51°22.26 2°50.66 4.7736 3.216954 33.442522 0.009329
2011-01-13 08:48:27 51°22.274 2°50.646 4.7779 3.216111 33.438096 -0.060319
2011-01-13 08:48:32 51°22.286 2°50.63 4.7774 3.215795 33.437978 -0.060319
2011-01-13 08:48:37 51°22.3 2°50.616 4.7745 3.214952 33.430907 -0.164791
2011-01-13 08:48:42 51°22.312 2°50.601 4.7729 3.214952 33.430907 -0.060319
2011-01-13 08:48:47 51°22.325 2°50.585 4.7779 3.214952 33.430907 -0.060319
2011-01-13 08:48:52 51°22.336 2°50.568 4.7787 3.214636 33.427264 -0.095143
2011-01-13 08:48:56 51°22.346 2°50.554 4.7818 3.214847 33.432336 -0.095143
2011-01-13 08:49:02 51°22.359 2°50.533 4.7846 3.214636 33.429907 -0.095143
2011-01-13 08:49:07 51°22.369 2°50.514 4.784 3.214636 33.427264 -0.095143
2011-01-13 08:49:12 51°22.379 2°50.496 4.7864 3.214741 33.430241 -0.095143
2011-01-13 08:49:17 51°22.389 2°50.478 4.7812 3.214741 33.430241 -0.095143
2011-01-13 08:49:22 51°22.399 2°50.459 4.7808 3.214741 33.430241 -0.129967
2011-01-13 08:49:27 51°22.408 2°50.44 4.7834 3.215268 33.435431 -0.060319
2011-01-13 08:49:32 51°22.417 2°50.42 4.7845 3.215268 33.433669 -0.095143
2011-01-13 08:49:37 51°22.426 2°50.4 4.7906 3.216217 33.442835 -0.129967
2011-01-13 08:49:42 51°22.435 2°50.38 4.7873 3.217587 33.457739 -0.060319
2011-01-13 08:49:47 51°22.443 2°50.36 4.789 3.217587 33.457739 -0.060319
2011-01-13 08:49:52 51°22.452 2°50.339 4.793 3.216638 33.445929 -0.164791
2011-01-13 08:49:56 51°22.459 2°50.322 4.7954 3.217481 33.455643 -0.060319
2011-01-13 08:50:02 51°22.47 2°50.296 4.7965 3.217271 33.451451 -0.129967
2011-01-13 08:50:07 51°22.478 2°50.274 4.7944 3.217903 33.459618 -0.129967
2011-01-13 08:50:12 51°22.487 2°50.252 4.7931 3.21843 33.463926 -0.129967
2011-01-13 08:50:17 51°22.495 2°50.232 4.7998 3.21843 33.463926 -0.129967
2011-01-13 08:50:23 51°22.506 2°50.207 4.7947 3.218535 33.463377 -0.129967
2011-01-13 08:50:28 51°22.514 2°50.186 4.8008 3.219062 33.465921 -0.129967
2011-01-13 08:50:33 51°22.522 2°50.164 4.7994 3.219378 33.469563 -0.164791
2011-01-13 08:50:38 51°22.532 2°50.143 4.8057 3.219694 33.469678 -0.164791
2011-01-13 08:50:43 51°22.541 2°50.123 4.8046 3.220221 33.473103 -0.199615
2011-01-13 08:50:48 51°22.549 2°50.101 4.8072 3.220221 33.473103 -0.199615
2011-01-13 08:50:52 51°22.555 2°50.083 4.8112 3.220643 33.477959 -0.199615
2011-01-13 08:50:57 51°22.564 2°50.06 4.8124 3.220116 33.469245 -0.129967
2011-01-13 08:51:03 51°22.574 2°50.033 4.8157 3.221064 33.481933 -0.164791
2011-01-13 08:51:07 51°22.581 2°50.014 4.8192 3.220959 33.477192 -0.164791
2011-01-13 08:51:12 51°22.59 2°49.992 4.8213 3.221591 33.483593 -0.129967
2011-01-13 08:51:16 51°22.597 2°49.975 4.8272 3.221591 33.483593 -0.129967
2011-01-13 08:51:23 51°22.611 2°49.945 4.8249 3.222118 33.490544 -0.199615
2011-01-13 08:51:28 51°22.62 2°49.925 4.8256 3.223383 33.501581 -0.164791
2011-01-13 08:51:32 51°22.627 2°49.907 4.8309 3.222223 33.485585 -0.164791
2011-01-13 08:51:37 51°22.636 2°49.886 4.8325 3.223804 33.49938 -0.164791
2011-01-13 08:51:43 51°22.647 2°49.86 4.837 3.224331 33.50192 -0.164791
2011-01-13 08:51:47 51°22.656 2°49.843 4.8368 3.224331 33.50192 -0.164791
2011-01-13 08:51:52 51°22.665 2°49.821 4.8354 3.224858 33.50446 -0.164791
2011-01-13 08:51:56 51°22.673 2°49.804 4.8428 3.226439 33.520014 -0.129967
2011-01-13 08:52:02 51°22.684 2°49.78 4.8449 3.225912 33.512183 -0.129967
2011-01-13 08:52:08 51°22.695 2°49.757 4.8456 3.226965 33.52167 -0.199615
2011-01-13 08:52:13 51°22.704 2°49.739 4.85 3.227387 33.522994 -0.199615
2011-01-13 08:52:19 51°22.714 2°49.718 4.8532 3.227387 33.522994 -0.199615
2011-01-13 08:52:24 51°22.722 2°49.698 4.8589 3.227598 33.524539 -0.129967
2011-01-13 08:52:29 51°22.731 2°49.679 4.8646 3.228546 33.531928 -0.199615
2011-01-13 08:52:35 51°22.741 2°49.657 4.8663 3.229284 33.537772 -0.199615
2011-01-13 08:52:40 51°22.75 2°49.637 4.8675 3.2296 33.537 -0.164791
2011-01-13 08:52:45 51°22.758 2°49.616 4.8676 3.230338 33.544608 -0.164791
2011-01-13 08:52:49 51°22.766 2°49.599 4.8716 3.230338 33.544608 -0.164791
2011-01-13 08:52:54 51°22.775 2°49.578 4.8707 3.231181 33.549899 -0.199615
2011-01-13 08:53:00 51°22.787 2°49.552 4.8692 3.231286 33.548465 -0.234439
2011-01-13 08:53:04 51°22.794 2°49.535 4.8653 3.232972 33.564338 -0.164791
2011-01-13 08:53:09 51°22.805 2°49.513 4.8646 3.233604 33.566319 -0.199615
2011-01-13 08:53:14 51°22.814 2°49.491 4.8643 3.234553 33.574583 -0.129967
2011-01-13 08:53:19 51°22.824 2°49.468 4.8682 3.234553 33.574583 -0.129967
2011-01-13 08:53:24 51°22.834 2°49.446 4.8672 3.23529 33.581305 -0.164791
2011-01-13 08:53:28 51°22.842 2°49.428 4.8702 3.235396 33.57987 -0.164791
2011-01-13 08:53:33 51°22.851 2°49.407 4.8719 3.235501 33.578434 -0.164791
2011-01-13 08:53:38 51°22.86 2°49.388 4.8756 3.235607 33.581412 -0.234439
2011-01-13 08:53:44 51°22.872 2°49.364 4.8802 3.235607 33.579647 -0.199615
2011-01-13 08:53:50 51°22.882 2°49.341 4.8829 3.235607 33.579647 -0.199615
2011-01-13 08:53:56 51°22.893 2°49.317 4.8851 3.235817 33.583836 -0.164791
2011-01-13 08:54:00 51°22.901 2°49.301 4.8849 3.236239 33.58692 -0.234439
2011-01-13 08:54:05 51°22.909 2°49.28 4.886 3.236344 33.586367 -0.234439
2011-01-13 08:54:10 51°22.918 2°49.258 4.8895 3.236133 33.58306 -0.164791
2011-01-13 08:54:15 51°22.927 2°49.236 4.8925 3.236344 33.584602 -0.199615
2011-01-13 08:54:20 51°22.936 2°49.214 4.8918 3.236344 33.584602 -0.199615
2011-01-13 08:54:24 51°22.944 2°49.196 4.8905 3.237082 33.589557 -0.234439
2011-01-13 08:54:29 51°22.954 2°49.175 4.8958 3.237714 33.593299 -0.234439
2011-01-13 08:54:34 51°22.964 2°49.153 4.8973 3.238241 33.598476 -0.199615
2011-01-13 08:54:39 51°22.972 2°49.132 4.8978 3.238873 33.602217 -0.164791
2011-01-13 08:54:44 51°22.982 2°49.11 4.9041 3.238979 33.602546 -0.199615
2011-01-13 08:54:49 51°22.992 2°49.089 4.9065 3.238979 33.602546 -0.199615
2011-01-13 08:54:54 51°23.001 2°49.069 4.9068 3.239506 33.605075 -0.234439
2011-01-13 08:55:00 51°23.012 2°49.046 4.9121 3.239506 33.602427 -0.199615
2011-01-13 08:55:05 51°23.022 2°49.025 4.9185 3.239927 33.609039 -0.199615
2011-01-13 08:55:10 51°23.032 2°49.005 4.9245 3.240876 33.616414 -0.234439
2011-01-13 08:55:15 51°23.041 2°48.985 4.9317 3.241192 33.619166 -0.199615
2011-01-13 08:55:20 51°23.05 2°48.964 4.9388 3.241192 33.619166 -0.199615
2011-01-13 08:55:25 51°23.059 2°48.943 4.9447 3.241297 33.615964 -0.199615
2011-01-13 08:55:30 51°23.069 2°48.922 4.9522 3.241929 33.619702 -0.199615
2011-01-13 08:55:35 51°23.078 2°48.9 4.958 3.242246 33.619806 -0.269263
2011-01-13 08:55:40 51°23.088 2°48.878 4.9659 3.242983 33.625637 -0.199615
2011-01-13 08:55:44 51°23.095 2°48.86 4.9734 3.243826 33.630031 -0.269263
2011-01-13 08:55:49 51°23.105 2°48.839 4.9799 3.243826 33.630031 -0.269263
2011-01-13 08:55:54 51°23.114 2°48.817 4.9838 3.245302 33.635512 -0.199615
2011-01-13 08:55:59 51°23.123 2°48.795 4.9873 3.246461 33.646183 -0.234439
2011-01-13 08:56:04 51°23.132 2°48.773 4.9853 3.248252 33.660586 -0.234439
2011-01-13 08:56:09 51°23.142 2°48.751 4.9869 3.249728 33.670471 -0.269263
2011-01-13 08:56:15 51°23.153 2°48.728 4.9833 3.251625 33.684312 -0.164791
2011-01-13 08:56:20 51°23.161 2°48.707 4.985 3.251625 33.684312 -0.164791
2011-01-13 08:56:25 51°23.17 2°48.685 4.9856 3.252362 33.683071 -0.234439
2011-01-13 08:56:30 51°23.18 2°48.664 4.9872 3.254681 33.70351 -0.269263
2011-01-13 08:56:35 51°23.189 2°48.644 4.9879 3.256051 33.713056 -0.234439
2011-01-13 08:56:40 51°23.198 2°48.623 4.9897 3.256261 33.709294 -0.199615
2011-01-13 08:56:45 51°23.207 2°48.602 4.9911 3.25721 33.714882 -0.234439
2011-01-13 08:56:50 51°23.217 2°48.581 4.9944 3.25721 33.714882 -0.234439
2011-01-13 08:56:55 51°23.226 2°48.559 4.9972 3.25721 33.711351 -0.304087
2011-01-13 08:57:00 51°23.236 2°48.539 5.0036 3.257842 33.720372 -0.269263
2011-01-13 08:57:05 51°23.245 2°48.518 5.0085 3.257526 33.715861 -0.269263
2011-01-13 08:57:10 51°23.254 2°48.496 5.0124 3.258053 33.721025 -0.234439
2011-01-13 08:57:15 51°23.263 2°48.474 5.0185 3.25858 33.727072 -0.234439
2011-01-13 08:57:20 51°23.273 2°48.453 5.0229 3.25858 33.727072 -0.234439
2011-01-13 08:57:25 51°23.282 2°48.431 5.0278 3.259318 33.733771 -0.234439
2011-01-13 08:57:29 51°23.289 2°48.414 5.0309 3.259212 33.731678 -0.269263
2011-01-13 08:57:35 51°23.301 2°48.39 5.0344 3.259845 33.731869 -0.269263
2011-01-13 08:57:40 51°23.31 2°48.371 5.0396 3.262479 33.760331 -0.269263
2011-01-13 08:57:46 51°23.319 2°48.347 5.04 3.262058 33.74931 -0.234439
2011-01-13 08:57:50 51°23.325 2°48.33 5.0384 3.262058 33.74931 -0.234439
2011-01-13 08:57:56 51°23.336 2°48.306 5.0412 3.261214 33.736108 -0.304087
2011-01-13 08:58:00 51°23.343 2°48.288 5.0417 3.263849 33.759262 -0.234439
2011-01-13 08:58:05 51°23.353 2°48.267 5.0432 3.264481 33.761214 -0.234439
2011-01-13 08:58:10 51°23.362 2°48.247 5.0447 3.264798 33.761308 -0.304087
2011-01-13 08:58:15 51°23.371 2°48.226 5.0457 3.263954 33.747228 -0.269263
2011-01-13 08:58:20 51°23.38 2°48.204 5.0491 3.263954 33.747228 -0.269263
2011-01-13 08:58:24 51°23.387 2°48.187 5.0511 3.2668 33.773669 -0.304087
2011-01-13 08:58:29 51°23.397 2°48.165 5.0547 3.266484 33.770927 -0.234439
2011-01-13 08:58:34 51°23.406 2°48.143 5.0568 3.2668 33.771903 -0.269263
2011-01-13 08:58:39 51°23.416 2°48.121 5.0593 3.267959 33.777244 -0.234439
2011-01-13 08:58:44 51°23.425 2°48.099 5.0634 3.267748 33.777477 -0.234439
2011-01-13 08:58:49 51°23.436 2°48.077 5.0636 3.267748 33.777477 -0.234439
2011-01-13 08:58:54 51°23.445 2°48.055 5.0666 3.269118 33.791414 -0.269263
2011-01-13 08:58:58 51°23.454 2°48.038 5.0695 3.268064 33.777569 -0.269263
2011-01-13 08:59:04 51°23.464 2°48.012 5.0721 3.267643 33.770973 -0.234439
2011-01-13 08:59:08 51°23.472 2°47.995 5.0716 3.270067 33.796102 -0.269263
2011-01-13 08:59:13 51°23.482 2°47.974 5.0737 3.270383 33.79531 -0.269263
2011-01-13 08:59:18 51°23.492 2°47.953 5.0707 3.270383 33.79531 -0.269263
2011-01-13 08:59:23 51°23.501 2°47.932 5.0719 3.271015 33.800789 -0.304087
2011-01-13 08:59:28 51°23.51 2°47.91 5.0728 3.271226 33.799672 -0.269263
2011-01-13 08:59:33 51°23.52 2°47.889 5.0727 3.272069 33.806683 -0.234439
2011-01-13 08:59:38 51°23.529 2°47.867 5.0688 3.27091 33.790753 -0.269263
2011-01-13 08:59:43 51°23.538 2°47.846 5.0658 3.272491 33.802683 -0.269263
2011-01-13 08:59:48 51°23.547 2°47.824 5.0685 3.272491 33.802683 -0.269263
2011-01-13 08:59:52 51°23.555 2°47.806 5.0674 3.273228 33.812016 -0.304087
2011-01-13 08:59:58 51°23.566 2°47.782 5.068 3.273228 33.811133 -0.269263
2011-01-13 09:00:04 51°23.579 2°47.759 5.0689 3.273123 33.809926 -0.269263
2011-01-13 09:00:08 51°23.586 2°47.742 5.0689 3.271121 33.785226 -0.269263
2011-01-13 09:00:14 51°23.596 2°47.718 5.0694 3.271437 33.789729 -0.234439
2011-01-13 09:00:18 51°23.604 2°47.701 5.072 3.271437 33.789729 -0.234439
2011-01-13 09:00:24 51°23.614 2°47.677 5.0739 3.273545 33.815638 -0.269263
2011-01-13 09:00:28 51°23.622 2°47.66 5.0748 3.272069 33.798737 -0.269263
2011-01-13 09:00:33 51°23.631 2°47.639 5.0788 3.272385 33.802358 -0.234439
2011-01-13 09:00:39 51°23.641 2°47.613 5.0775 3.272912 33.809277 -0.269263
2011-01-13 09:00:44 51°23.65 2°47.593 5.078 3.273545 33.816521 -0.269263
2011-01-13 09:00:48 51°23.658 2°47.576 5.0798 3.273545 33.816521 -0.269263
2011-01-13 09:00:53 51°23.667 2°47.555 5.0804 3.273861 33.819259 -0.269263
2011-01-13 09:00:58 51°23.676 2°47.534 5.0835 3.272596 33.806538 -0.269263
2011-01-13 09:01:03 51°23.685 2°47.512 5.0822 3.273123 33.809926 -0.269263
2011-01-13 09:01:08 51°23.694 2°47.49 5.0863 3.274072 33.817258 -0.304087
2011-01-13 09:01:13 51°23.703 2°47.468 5.0865 3.272174 33.793766 -0.269263
2011-01-13 09:01:18 51°23.712 2°47.446 5.0848 3.272174 33.793766 -0.269263
2011-01-13 09:01:23 51°23.72 2°47.423 5.0883 3.274704 33.821851 -0.304087
2011-01-13 09:01:28 51°23.729 2°47.401 5.0895 3.274598 33.821527 -0.269263
2011-01-13 09:01:32 51°23.736 2°47.383 5.0896 3.275442 33.827651 -0.304087
2011-01-13 09:01:37 51°23.745 2°47.36 5.0882 3.274071 33.811961 -0.269263
2011-01-13 09:01:42 51°23.753 2°47.337 5.0887 3.273966 33.808106 -0.269263
2011-01-13 09:01:47 51°23.762 2°47.314 5.0883 3.273966 33.808106 -0.269263
2011-01-13 09:01:52 51°23.77 2°47.291 5.0887 3.275547 33.825326 -0.269263
2011-01-13 09:01:57 51°23.778 2°47.267 5.0891 3.273334 33.798218 -0.304087
2011-01-13 09:02:02 51°23.786 2°47.246 5.0915 3.273861 33.802487 -0.234439
2011-01-13 09:02:07 51°23.793 2°47.223 5.098 3.27502 33.81576 -0.269263
2011-01-13 09:02:12 51°23.8 2°47.2 5.0998 3.27365 33.798309 -0.269263
2011-01-13 09:02:17 51°23.807 2°47.177 5.1015 3.27365 33.798309 -0.269263
2011-01-13 09:02:22 51°23.815 2°47.154 5.107 3.274915 33.814554 -0.269263
2011-01-13 09:02:27 51°23.823 2°47.131 5.1082 3.275968 33.82309 -0.269263
2011-01-13 09:02:32 51°23.831 2°47.108 5.1118 3.275125 33.815202 -0.269263
2011-01-13 09:02:37 51°23.837 2°47.084 5.1129 3.276601 33.831213 -0.269263
2011-01-13 09:02:42 51°23.846 2°47.062 5.1135 3.274282 33.80202 -0.304087
2011-01-13 09:02:47 51°23.853 2°47.038 5.118 3.274282 33.80202 -0.304087
2011-01-13 09:02:52 51°23.86 2°47.016 5.1187 3.276706 33.825357 -0.269263
2011-01-13 09:02:58 51°23.869 2°46.989 5.123 3.277655 33.831801 -0.269263
2011-01-13 09:03:03 51°23.876 2°46.967 5.1254 3.275863 33.810412 -0.304087
2011-01-13 09:03:08 51°23.883 2°46.945 5.129 3.277971 33.83189 -0.304087
2011-01-13 09:03:12 51°23.889 2°46.926 5.1334 3.279341 33.841392 -0.269263
2011-01-13 09:03:17 51°23.897 2°46.904 5.1359 3.279341 33.841392 -0.269263
2011-01-13 09:03:22 51°23.904 2°46.881 5.1373 3.279657 33.844127 -0.304087
2011-01-13 09:03:27 51°23.911 2°46.858 5.1396 3.278708 33.829743 -0.269263
2011-01-13 09:03:32 51°23.919 2°46.835 5.1416 3.281449 33.858451 -0.304087
2011-01-13 09:03:36 51°23.926 2°46.816 5.1439 3.281449 33.858451 -0.304087
2011-01-13 09:03:42 51°23.935 2°46.788 5.1436 3.28187 33.85886 -0.234439
2011-01-13 09:03:47 51°23.943 2°46.764 5.1442 3.28187 33.85886 -0.234439
2011-01-13 09:03:52 51°23.95 2°46.74 5.1455 3.279657 33.830892 -0.304087
2011-01-13 09:03:57 51°23.958 2°46.719 5.1493 3.282608 33.858473 -0.269263
2011-01-13 09:04:03 51°23.968 2°46.693 5.1515 3.283767 33.868204 -0.304087
2011-01-13 09:04:08 51°23.976 2°46.674 5.1527 3.281027 33.833335 -0.304087
2011-01-13 09:04:13 51°23.983 2°46.654 5.1542 3.284399 33.871023 -0.269263
2011-01-13 09:04:19 51°23.992 2°46.628 5.1568 3.284399 33.871023 -0.269263
2011-01-13 09:04:24 51°23.998 2°46.605 5.1571 3.282818 33.850296 -0.269263
2011-01-13 09:04:28 51°24.005 2°46.589 5.1577 3.283872 33.860584 -0.304087
2011-01-13 09:04:34 51°24.013 2°46.565 5.1587 3.282924 33.848856 -0.304087
2011-01-13 09:04:39 51°24.021 2°46.544 5.1627 3.282713 33.842918 -0.304087
2011-01-13 09:04:44 51°24.028 2°46.523 5.1607 3.285453 33.871603 -0.304087
2011-01-13 09:04:50 51°24.036 2°46.497 5.1632 3.285453 33.871603 -0.304087
2011-01-13 09:04:55 51°24.044 2°46.475 5.1631 3.283661 33.846709 -0.338911
2011-01-13 09:05:00 51°24.051 2°46.453 5.166 3.285242 33.867428 -0.269263
2011-01-13 09:05:04 51°24.057 2°46.434 5.1695 3.286191 33.876508 -0.269263
2011-01-13 09:05:09 51°24.064 2°46.411 5.1714 3.286085 33.871774 -0.269263
2011-01-13 09:05:14 51°24.072 2°46.388 5.1728 3.287139 33.88294 -0.269263
2011-01-13 09:05:19 51°24.079 2°46.364 5.1766 3.287139 33.88294 -0.269263
2011-01-13 09:05:24 51°24.087 2°46.341 5.1786 3.285664 33.864309 -0.304087
2011-01-13 09:05:28 51°24.093 2°46.321 5.1802 3.286612 33.87427 -0.338911
2011-01-13 09:05:33 51°24.102 2°46.298 5.1811 3.287456 33.882143 -0.304087
2011-01-13 09:05:38 51°24.11 2°46.274 5.1866 3.288088 33.887607 -0.304087
2011-01-13 09:05:43 51°24.118 2°46.251 5.1865 3.286718 33.8693 -0.304087
2011-01-13 09:05:48 51°24.126 2°46.228 5.1882 3.286718 33.8693 -0.304087
2011-01-13 09:05:53 51°24.133 2°46.205 5.192 3.288193 33.886164 -0.269263
2011-01-13 09:05:58 51°24.142 2°46.182 5.1978 3.285664 33.852848 -0.304087
2011-01-13 09:06:03 51°24.149 2°46.158 5.1979 3.286402 33.860397 -0.304087
2011-01-13 09:06:07 51°24.156 2°46.139 5.2031 3.289247 33.888505 -0.304087
2011-01-13 09:06:12 51°24.164 2°46.117 5.2048 3.287561 33.865711 -0.304087
2011-01-13 09:06:17 51°24.173 2°46.094 5.2085 3.287561 33.865711 -0.304087
2011-01-13 09:06:22 51°24.18 2°46.071 5.2109 3.287245 33.860336 -0.304087
2011-01-13 09:06:27 51°24.188 2°46.048 5.2119 3.29009 33.890201 -0.304087
2011-01-13 09:06:32 51°24.196 2°46.025 5.2145 3.288088 33.865562 -0.338911
2011-01-13 09:06:37 51°24.204 2°46.002 5.2175 3.288193 33.863241 -0.338911
2011-01-13 09:06:42 51°24.211 2°45.979 5.218 3.28872 33.865736 -0.338911
2011-01-13 09:06:47 51°24.219 2°45.957 5.219 3.28872 33.865736 -0.338911
2011-01-13 09:06:52 51°24.227 2°45.934 5.221 3.289563 33.870079 -0.304087
2011-01-13 09:06:56 51°24.233 2°45.916 5.2209 3.291671 33.891507 -0.304087
2011-01-13 09:07:02 51°24.242 2°45.888 5.2218 3.290828 33.878354 -0.304087
2011-01-13 09:07:07 51°24.25 2°45.864 5.2229 3.292514 33.894083 -0.304087
2011-01-13 09:07:12 51°24.257 2°45.84 5.2216 3.293884 33.908846 -0.304087
2011-01-13 09:07:16 51°24.264 2°45.822 5.222 3.293884 33.908846 -0.304087
2011-01-13 09:07:22 51°24.274 2°45.793 5.2219 3.294517 33.912539 -0.304087
2011-01-13 09:07:27 51°24.282 2°45.769 5.2209 3.291565 33.878848 -0.304087
2011-01-13 09:07:32 51°24.29 2°45.746 5.2214 3.294938 33.912944 -0.304087
2011-01-13 09:07:37 51°24.298 2°45.723 5.2184 3.293673 33.896744 -0.304087
2011-01-13 09:07:42 51°24.306 2°45.7 5.2185 3.294938 33.911181 -0.338911
2011-01-13 09:07:47 51°24.313 2°45.676 5.2152 3.294938 33.911181 -0.338911
2011-01-13 09:07:52 51°24.321 2°45.654 5.2142 3.294411 33.904284 -0.304087
2011-01-13 09:07:57 51°24.328 2°45.631 5.2167 3.292303 33.881105 -0.304087
2011-01-13 09:08:02 51°24.335 2°45.608 5.2178 3.292198 33.87726 -0.304087
2011-01-13 09:08:07 51°24.342 2°45.585 5.2167 3.292514 33.880869 -0.304087
2011-01-13 09:08:12 51°24.348 2°45.562 5.2176 3.291882 33.873651 -0.338911
2011-01-13 09:08:18 51°24.354 2°45.535 5.2179 3.291882 33.873651 -0.338911
2011-01-13 09:08:23 51°24.359 2°45.512 5.2209 3.294306 33.899557 -0.304087
2011-01-13 09:08:27 51°24.363 2°45.493 5.2202 3.292409 33.881427 -0.338911
2011-01-13 09:08:32 51°24.369 2°45.469 5.2195 3.295465 33.918079 -0.304087
2011-01-13 09:08:37 51°24.374 2°45.447 5.2216 3.291776 33.87597 -0.304087
2011-01-13 09:08:43 51°24.379 2°45.419 5.2216 3.291776 33.877732 -0.269263
2011-01-13 09:08:47 51°24.383 2°45.399 5.2209 3.291776 33.877732 -0.269263
2011-01-13 09:08:52 51°24.387 2°45.377 5.2239 3.295149 33.916232 -0.338911
2011-01-13 09:08:58 51°24.392 2°45.352 5.2227 3.291987 33.880138 -0.304087
2011-01-13 09:09:04 51°24.395 2°45.324 5.2244 3.291987 33.876615 -0.304087
2011-01-13 09:09:08 51°24.396 2°45.306 5.2266 3.294306 33.903081 -0.338911
2011-01-13 09:09:13 51°24.4 2°45.284 5.2271 3.293252 33.891932 -0.338911
2011-01-13 09:09:18 51°24.403 2°45.261 5.2256 3.293252 33.891932 -0.338911
2011-01-13 09:09:23 51°24.405 2°45.237 5.2275 3.294095 33.899794 -0.304087
2011-01-13 09:09:28 51°24.407 2°45.213 5.2288 3.295465 33.915434 -0.338911
2011-01-13 09:09:32 51°24.409 2°45.194 5.2308 3.295676 33.915195 -0.338911